<?xml version="1.0" encoding="UTF-8" standalone="no" ?>
<gpx xmlns="http://www.topografix.com/GPX/1/1" xmlns:xsi="http://www.w3.org/2001/XMLSchema-instance" xsi:schemaLocation="http://www.topografix.com/GPX/1/1 http://www.topografix.com/GPX/1/1/gpx.xsd" version="1.1" creator="VisuGPX - https://www.visugpx.com">
  <metadata>
    <name>Col de Balafrasse - 2019-01-20</name>
  </metadata>
  <trk>
    <name><![CDATA[Col de Balafrasse - 2019-01-20]]></name>
    <trkseg>
      <trkpt lat="45.97807" lon="6.46872">
        <ele>1408.95</ele>
        <time>2019-01-20T08:50:53Z</time>
      </trkpt>
      <trkpt lat="45.97807" lon="6.46873">
        <ele>1408.95</ele>
        <time>2019-01-20T08:50:54Z</time>
      </trkpt>
      <trkpt lat="45.97809" lon="6.4687">
        <ele>1410.39</ele>
        <time>2019-01-20T08:51:05Z</time>
      </trkpt>
      <trkpt lat="45.97809" lon="6.4687">
        <ele>1407.03</ele>
        <time>2019-01-20T08:51:07Z</time>
      </trkpt>
      <trkpt lat="45.97809" lon="6.46871">
        <ele>1410.39</ele>
        <time>2019-01-20T08:51:08Z</time>
      </trkpt>
      <trkpt lat="45.9781" lon="6.46871">
        <ele>1409.43</ele>
        <time>2019-01-20T08:51:11Z</time>
      </trkpt>
      <trkpt lat="45.97814" lon="6.46871">
        <ele>1409.91</ele>
        <time>2019-01-20T08:51:26Z</time>
      </trkpt>
      <trkpt lat="45.97814" lon="6.46872">
        <ele>1409.91</ele>
        <time>2019-01-20T08:51:43Z</time>
      </trkpt>
      <trkpt lat="45.97814" lon="6.46869">
        <ele>1408.47</ele>
        <time>2019-01-20T08:51:50Z</time>
      </trkpt>
      <trkpt lat="45.97814" lon="6.46871">
        <ele>1408.47</ele>
        <time>2019-01-20T08:52:09Z</time>
      </trkpt>
      <trkpt lat="45.97814" lon="6.46874">
        <ele>1408.47</ele>
        <time>2019-01-20T08:52:29Z</time>
      </trkpt>
      <trkpt lat="45.97814" lon="6.46873">
        <ele>1408.95</ele>
        <time>2019-01-20T08:52:43Z</time>
      </trkpt>
      <trkpt lat="45.97813" lon="6.46873">
        <ele>1408.95</ele>
        <time>2019-01-20T08:53:06Z</time>
      </trkpt>
      <trkpt lat="45.97813" lon="6.46872">
        <ele>1408.95</ele>
        <time>2019-01-20T08:53:30Z</time>
      </trkpt>
      <trkpt lat="45.97813" lon="6.46871">
        <ele>1409.91</ele>
        <time>2019-01-20T08:53:40Z</time>
      </trkpt>
      <trkpt lat="45.97813" lon="6.4687">
        <ele>1408.95</ele>
        <time>2019-01-20T08:53:45Z</time>
      </trkpt>
      <trkpt lat="45.97814" lon="6.46873">
        <ele>1408.95</ele>
        <time>2019-01-20T08:54:14Z</time>
      </trkpt>
      <trkpt lat="45.97814" lon="6.46874">
        <ele>1408.95</ele>
        <time>2019-01-20T08:54:38Z</time>
      </trkpt>
      <trkpt lat="45.97815" lon="6.46872">
        <ele>1408.95</ele>
        <time>2019-01-20T08:55:01Z</time>
      </trkpt>
      <trkpt lat="45.97817" lon="6.4687">
        <ele>1408.95</ele>
        <time>2019-01-20T08:55:32Z</time>
      </trkpt>
      <trkpt lat="45.97817" lon="6.46872">
        <ele>1410.39</ele>
        <time>2019-01-20T08:55:55Z</time>
      </trkpt>
      <trkpt lat="45.97814" lon="6.46872">
        <ele>1408.47</ele>
        <time>2019-01-20T08:56:20Z</time>
      </trkpt>
      <trkpt lat="45.97815" lon="6.46871">
        <ele>1409.91</ele>
        <time>2019-01-20T08:56:26Z</time>
      </trkpt>
      <trkpt lat="45.97816" lon="6.46871">
        <ele>1409.91</ele>
        <time>2019-01-20T08:56:53Z</time>
      </trkpt>
      <trkpt lat="45.97816" lon="6.46873">
        <ele>1409.91</ele>
        <time>2019-01-20T08:57:15Z</time>
      </trkpt>
      <trkpt lat="45.97816" lon="6.46874">
        <ele>1409.91</ele>
        <time>2019-01-20T08:57:35Z</time>
      </trkpt>
      <trkpt lat="45.97814" lon="6.46877">
        <ele>1408.95</ele>
        <time>2019-01-20T08:58:03Z</time>
      </trkpt>
      <trkpt lat="45.97818" lon="6.46872">
        <ele>1409.43</ele>
        <time>2019-01-20T08:58:36Z</time>
      </trkpt>
      <trkpt lat="45.97825" lon="6.46866">
        <ele>1409.43</ele>
        <time>2019-01-20T08:58:53Z</time>
      </trkpt>
      <trkpt lat="45.97833" lon="6.46858">
        <ele>1410.39</ele>
        <time>2019-01-20T08:59:07Z</time>
      </trkpt>
      <trkpt lat="45.97842" lon="6.46845">
        <ele>1410.87</ele>
        <time>2019-01-20T08:59:24Z</time>
      </trkpt>
      <trkpt lat="45.97849" lon="6.46833">
        <ele>1412.31</ele>
        <time>2019-01-20T08:59:40Z</time>
      </trkpt>
      <trkpt lat="45.97849" lon="6.46834">
        <ele>1410.39</ele>
        <time>2019-01-20T08:59:43Z</time>
      </trkpt>
      <trkpt lat="45.97849" lon="6.46835">
        <ele>1410.39</ele>
        <time>2019-01-20T09:00:12Z</time>
      </trkpt>
      <trkpt lat="45.97849" lon="6.46835">
        <ele>1411.83</ele>
        <time>2019-01-20T09:00:14Z</time>
      </trkpt>
      <trkpt lat="45.97849" lon="6.46833">
        <ele>1409.91</ele>
        <time>2019-01-20T09:00:23Z</time>
      </trkpt>
      <trkpt lat="45.97849" lon="6.46833">
        <ele>1411.35</ele>
        <time>2019-01-20T09:00:25Z</time>
      </trkpt>
      <trkpt lat="45.97852" lon="6.46829">
        <ele>1411.83</ele>
        <time>2019-01-20T09:00:49Z</time>
      </trkpt>
      <trkpt lat="45.97856" lon="6.46822">
        <ele>1411.83</ele>
        <time>2019-01-20T09:00:56Z</time>
      </trkpt>
      <trkpt lat="45.97863" lon="6.46803">
        <ele>1413.28</ele>
        <time>2019-01-20T09:01:14Z</time>
      </trkpt>
      <trkpt lat="45.97872" lon="6.46781">
        <ele>1414.72</ele>
        <time>2019-01-20T09:01:31Z</time>
      </trkpt>
      <trkpt lat="45.9788" lon="6.46757">
        <ele>1415.2</ele>
        <time>2019-01-20T09:01:49Z</time>
      </trkpt>
      <trkpt lat="45.97887" lon="6.4674">
        <ele>1417.12</ele>
        <time>2019-01-20T09:02:03Z</time>
      </trkpt>
      <trkpt lat="45.97896" lon="6.46721">
        <ele>1418.08</ele>
        <time>2019-01-20T09:02:20Z</time>
      </trkpt>
      <trkpt lat="45.97898" lon="6.46718">
        <ele>1418.08</ele>
        <time>2019-01-20T09:02:23Z</time>
      </trkpt>
      <trkpt lat="45.9791" lon="6.46706">
        <ele>1419.52</ele>
        <time>2019-01-20T09:02:38Z</time>
      </trkpt>
      <trkpt lat="45.97924" lon="6.46693">
        <ele>1420.49</ele>
        <time>2019-01-20T09:02:53Z</time>
      </trkpt>
      <trkpt lat="45.97939" lon="6.46679">
        <ele>1422.41</ele>
        <time>2019-01-20T09:03:11Z</time>
      </trkpt>
      <trkpt lat="45.97954" lon="6.46666">
        <ele>1423.85</ele>
        <time>2019-01-20T09:03:28Z</time>
      </trkpt>
      <trkpt lat="45.97972" lon="6.46648">
        <ele>1425.29</ele>
        <time>2019-01-20T09:03:48Z</time>
      </trkpt>
      <trkpt lat="45.97986" lon="6.46632">
        <ele>1426.73</ele>
        <time>2019-01-20T09:04:04Z</time>
      </trkpt>
      <trkpt lat="45.98001" lon="6.46618">
        <ele>1428.18</ele>
        <time>2019-01-20T09:04:21Z</time>
      </trkpt>
      <trkpt lat="45.98016" lon="6.46606">
        <ele>1430.1</ele>
        <time>2019-01-20T09:04:38Z</time>
      </trkpt>
      <trkpt lat="45.98032" lon="6.46598">
        <ele>1431.54</ele>
        <time>2019-01-20T09:04:54Z</time>
      </trkpt>
      <trkpt lat="45.98049" lon="6.46592">
        <ele>1433.46</ele>
        <time>2019-01-20T09:05:10Z</time>
      </trkpt>
      <trkpt lat="45.98068" lon="6.46586">
        <ele>1434.91</ele>
        <time>2019-01-20T09:05:29Z</time>
      </trkpt>
      <trkpt lat="45.9809" lon="6.46584">
        <ele>1436.83</ele>
        <time>2019-01-20T09:05:47Z</time>
      </trkpt>
      <trkpt lat="45.98108" lon="6.4658">
        <ele>1438.27</ele>
        <time>2019-01-20T09:06:04Z</time>
      </trkpt>
      <trkpt lat="45.9813" lon="6.46574">
        <ele>1440.19</ele>
        <time>2019-01-20T09:06:25Z</time>
      </trkpt>
      <trkpt lat="45.98147" lon="6.46569">
        <ele>1441.63</ele>
        <time>2019-01-20T09:06:42Z</time>
      </trkpt>
      <trkpt lat="45.98165" lon="6.46564">
        <ele>1444.04</ele>
        <time>2019-01-20T09:07:00Z</time>
      </trkpt>
      <trkpt lat="45.98182" lon="6.46559">
        <ele>1445.48</ele>
        <time>2019-01-20T09:07:17Z</time>
      </trkpt>
      <trkpt lat="45.98203" lon="6.46554">
        <ele>1447.4</ele>
        <time>2019-01-20T09:07:36Z</time>
      </trkpt>
      <trkpt lat="45.98223" lon="6.46549">
        <ele>1448.84</ele>
        <time>2019-01-20T09:07:53Z</time>
      </trkpt>
      <trkpt lat="45.98244" lon="6.46545">
        <ele>1451.25</ele>
        <time>2019-01-20T09:08:12Z</time>
      </trkpt>
      <trkpt lat="45.98263" lon="6.4654">
        <ele>1452.69</ele>
        <time>2019-01-20T09:08:31Z</time>
      </trkpt>
      <trkpt lat="45.98281" lon="6.46536">
        <ele>1454.61</ele>
        <time>2019-01-20T09:08:48Z</time>
      </trkpt>
      <trkpt lat="45.98299" lon="6.46537">
        <ele>1456.05</ele>
        <time>2019-01-20T09:09:04Z</time>
      </trkpt>
      <trkpt lat="45.98317" lon="6.46541">
        <ele>1457.98</ele>
        <time>2019-01-20T09:09:22Z</time>
      </trkpt>
      <trkpt lat="45.98335" lon="6.46548">
        <ele>1459.42</ele>
        <time>2019-01-20T09:09:40Z</time>
      </trkpt>
      <trkpt lat="45.98351" lon="6.4655">
        <ele>1460.86</ele>
        <time>2019-01-20T09:09:55Z</time>
      </trkpt>
      <trkpt lat="45.9837" lon="6.46552">
        <ele>1462.78</ele>
        <time>2019-01-20T09:10:12Z</time>
      </trkpt>
      <trkpt lat="45.98371" lon="6.46552">
        <ele>1462.78</ele>
        <time>2019-01-20T09:10:13Z</time>
      </trkpt>
      <trkpt lat="45.9839" lon="6.46563">
        <ele>1464.23</ele>
        <time>2019-01-20T09:10:31Z</time>
      </trkpt>
      <trkpt lat="45.98394" lon="6.46564">
        <ele>1464.71</ele>
        <time>2019-01-20T09:10:35Z</time>
      </trkpt>
      <trkpt lat="45.9841" lon="6.46569">
        <ele>1466.63</ele>
        <time>2019-01-20T09:10:51Z</time>
      </trkpt>
      <trkpt lat="45.98431" lon="6.46574">
        <ele>1468.07</ele>
        <time>2019-01-20T09:11:08Z</time>
      </trkpt>
      <trkpt lat="45.98448" lon="6.4658">
        <ele>1469.51</ele>
        <time>2019-01-20T09:11:24Z</time>
      </trkpt>
      <trkpt lat="45.98467" lon="6.46587">
        <ele>1471.44</ele>
        <time>2019-01-20T09:11:42Z</time>
      </trkpt>
      <trkpt lat="45.98491" lon="6.46595">
        <ele>1473.36</ele>
        <time>2019-01-20T09:12:03Z</time>
      </trkpt>
      <trkpt lat="45.98509" lon="6.46603">
        <ele>1474.8</ele>
        <time>2019-01-20T09:12:19Z</time>
      </trkpt>
      <trkpt lat="45.98524" lon="6.46612">
        <ele>1476.24</ele>
        <time>2019-01-20T09:12:35Z</time>
      </trkpt>
      <trkpt lat="45.98541" lon="6.46623">
        <ele>1478.16</ele>
        <time>2019-01-20T09:12:53Z</time>
      </trkpt>
      <trkpt lat="45.98557" lon="6.46637">
        <ele>1479.61</ele>
        <time>2019-01-20T09:13:09Z</time>
      </trkpt>
      <trkpt lat="45.98571" lon="6.46649">
        <ele>1481.05</ele>
        <time>2019-01-20T09:13:24Z</time>
      </trkpt>
      <trkpt lat="45.98585" lon="6.46667">
        <ele>1482.97</ele>
        <time>2019-01-20T09:13:41Z</time>
      </trkpt>
      <trkpt lat="45.98598" lon="6.46685">
        <ele>1484.41</ele>
        <time>2019-01-20T09:13:59Z</time>
      </trkpt>
      <trkpt lat="45.98608" lon="6.46704">
        <ele>1485.85</ele>
        <time>2019-01-20T09:14:14Z</time>
      </trkpt>
      <trkpt lat="45.98619" lon="6.46723">
        <ele>1487.3</ele>
        <time>2019-01-20T09:14:30Z</time>
      </trkpt>
      <trkpt lat="45.98629" lon="6.46746">
        <ele>1488.74</ele>
        <time>2019-01-20T09:14:47Z</time>
      </trkpt>
      <trkpt lat="45.98638" lon="6.46768">
        <ele>1490.66</ele>
        <time>2019-01-20T09:15:03Z</time>
      </trkpt>
      <trkpt lat="45.98648" lon="6.46795">
        <ele>1492.58</ele>
        <time>2019-01-20T09:15:22Z</time>
      </trkpt>
      <trkpt lat="45.98657" lon="6.46819">
        <ele>1493.55</ele>
        <time>2019-01-20T09:15:41Z</time>
      </trkpt>
      <trkpt lat="45.98663" lon="6.46843">
        <ele>1494.99</ele>
        <time>2019-01-20T09:15:57Z</time>
      </trkpt>
      <trkpt lat="45.98667" lon="6.46852">
        <ele>1495.95</ele>
        <time>2019-01-20T09:16:04Z</time>
      </trkpt>
      <trkpt lat="45.98679" lon="6.46872">
        <ele>1496.91</ele>
        <time>2019-01-20T09:16:21Z</time>
      </trkpt>
      <trkpt lat="45.98688" lon="6.46889">
        <ele>1499.31</ele>
        <time>2019-01-20T09:16:36Z</time>
      </trkpt>
      <trkpt lat="45.98697" lon="6.46913">
        <ele>1500.76</ele>
        <time>2019-01-20T09:16:54Z</time>
      </trkpt>
      <trkpt lat="45.98703" lon="6.46933">
        <ele>1501.72</ele>
        <time>2019-01-20T09:17:09Z</time>
      </trkpt>
      <trkpt lat="45.98707" lon="6.46942">
        <ele>1501.72</ele>
        <time>2019-01-20T09:17:16Z</time>
      </trkpt>
      <trkpt lat="45.98719" lon="6.46961">
        <ele>1503.64</ele>
        <time>2019-01-20T09:17:33Z</time>
      </trkpt>
      <trkpt lat="45.98723" lon="6.46969">
        <ele>1503.64</ele>
        <time>2019-01-20T09:17:40Z</time>
      </trkpt>
      <trkpt lat="45.98733" lon="6.4699">
        <ele>1505.08</ele>
        <time>2019-01-20T09:17:56Z</time>
      </trkpt>
      <trkpt lat="45.98743" lon="6.47007">
        <ele>1506.52</ele>
        <time>2019-01-20T09:18:11Z</time>
      </trkpt>
      <trkpt lat="45.98748" lon="6.47014">
        <ele>1507.97</ele>
        <time>2019-01-20T09:18:18Z</time>
      </trkpt>
      <trkpt lat="45.98756" lon="6.47032">
        <ele>1508.93</ele>
        <time>2019-01-20T09:18:35Z</time>
      </trkpt>
      <trkpt lat="45.98755" lon="6.47033">
        <ele>1509.89</ele>
        <time>2019-01-20T09:18:50Z</time>
      </trkpt>
      <trkpt lat="45.98757" lon="6.47034">
        <ele>1508.45</ele>
        <time>2019-01-20T09:18:56Z</time>
      </trkpt>
      <trkpt lat="45.98762" lon="6.47032">
        <ele>1507.97</ele>
        <time>2019-01-20T09:19:27Z</time>
      </trkpt>
      <trkpt lat="45.98759" lon="6.47028">
        <ele>1507.97</ele>
        <time>2019-01-20T09:19:42Z</time>
      </trkpt>
      <trkpt lat="45.98758" lon="6.47034">
        <ele>1509.89</ele>
        <time>2019-01-20T09:20:09Z</time>
      </trkpt>
      <trkpt lat="45.98757" lon="6.47034">
        <ele>1509.41</ele>
        <time>2019-01-20T09:20:30Z</time>
      </trkpt>
      <trkpt lat="45.98756" lon="6.47034">
        <ele>1509.89</ele>
        <time>2019-01-20T09:20:51Z</time>
      </trkpt>
      <trkpt lat="45.98755" lon="6.47032">
        <ele>1509.89</ele>
        <time>2019-01-20T09:21:19Z</time>
      </trkpt>
      <trkpt lat="45.98756" lon="6.47031">
        <ele>1508.45</ele>
        <time>2019-01-20T09:21:30Z</time>
      </trkpt>
      <trkpt lat="45.98752" lon="6.47038">
        <ele>1509.89</ele>
        <time>2019-01-20T09:21:46Z</time>
      </trkpt>
      <trkpt lat="45.98753" lon="6.47038">
        <ele>1509.89</ele>
        <time>2019-01-20T09:22:04Z</time>
      </trkpt>
      <trkpt lat="45.98751" lon="6.47032">
        <ele>1509.89</ele>
        <time>2019-01-20T09:22:27Z</time>
      </trkpt>
      <trkpt lat="45.98754" lon="6.47037">
        <ele>1509.89</ele>
        <time>2019-01-20T09:22:51Z</time>
      </trkpt>
      <trkpt lat="45.98761" lon="6.47045">
        <ele>1509.89</ele>
        <time>2019-01-20T09:22:58Z</time>
      </trkpt>
      <trkpt lat="45.98769" lon="6.47053">
        <ele>1511.33</ele>
        <time>2019-01-20T09:23:07Z</time>
      </trkpt>
      <trkpt lat="45.98782" lon="6.47065">
        <ele>1512.77</ele>
        <time>2019-01-20T09:23:24Z</time>
      </trkpt>
      <trkpt lat="45.98791" lon="6.47081">
        <ele>1513.73</ele>
        <time>2019-01-20T09:23:38Z</time>
      </trkpt>
      <trkpt lat="45.98799" lon="6.47102">
        <ele>1515.66</ele>
        <time>2019-01-20T09:23:54Z</time>
      </trkpt>
      <trkpt lat="45.988" lon="6.47122">
        <ele>1517.58</ele>
        <time>2019-01-20T09:24:11Z</time>
      </trkpt>
      <trkpt lat="45.98802" lon="6.47134">
        <ele>1519.02</ele>
        <time>2019-01-20T09:24:24Z</time>
      </trkpt>
      <trkpt lat="45.98803" lon="6.47143">
        <ele>1520.46</ele>
        <time>2019-01-20T09:24:41Z</time>
      </trkpt>
      <trkpt lat="45.98805" lon="6.47156">
        <ele>1521.9</ele>
        <time>2019-01-20T09:24:54Z</time>
      </trkpt>
      <trkpt lat="45.9881" lon="6.47172">
        <ele>1523.83</ele>
        <time>2019-01-20T09:25:09Z</time>
      </trkpt>
      <trkpt lat="45.98813" lon="6.47189">
        <ele>1526.71</ele>
        <time>2019-01-20T09:25:25Z</time>
      </trkpt>
      <trkpt lat="45.98814" lon="6.47207">
        <ele>1529.11</ele>
        <time>2019-01-20T09:25:41Z</time>
      </trkpt>
      <trkpt lat="45.98815" lon="6.47221">
        <ele>1532</ele>
        <time>2019-01-20T09:25:54Z</time>
      </trkpt>
      <trkpt lat="45.98828" lon="6.47219">
        <ele>1534.4</ele>
        <time>2019-01-20T09:26:10Z</time>
      </trkpt>
      <trkpt lat="45.98831" lon="6.47217">
        <ele>1535.36</ele>
        <time>2019-01-20T09:26:16Z</time>
      </trkpt>
      <trkpt lat="45.98846" lon="6.47213">
        <ele>1538.25</ele>
        <time>2019-01-20T09:26:35Z</time>
      </trkpt>
      <trkpt lat="45.98857" lon="6.47221">
        <ele>1540.65</ele>
        <time>2019-01-20T09:26:52Z</time>
      </trkpt>
      <trkpt lat="45.98857" lon="6.47221">
        <ele>1540.65</ele>
        <time>2019-01-20T09:26:53Z</time>
      </trkpt>
      <trkpt lat="45.98868" lon="6.47234">
        <ele>1544.01</ele>
        <time>2019-01-20T09:27:10Z</time>
      </trkpt>
      <trkpt lat="45.98875" lon="6.47244">
        <ele>1547.38</ele>
        <time>2019-01-20T09:27:24Z</time>
      </trkpt>
      <trkpt lat="45.98883" lon="6.47258">
        <ele>1549.3</ele>
        <time>2019-01-20T09:27:42Z</time>
      </trkpt>
      <trkpt lat="45.98892" lon="6.47272">
        <ele>1552.19</ele>
        <time>2019-01-20T09:27:59Z</time>
      </trkpt>
      <trkpt lat="45.98898" lon="6.47287">
        <ele>1555.55</ele>
        <time>2019-01-20T09:28:14Z</time>
      </trkpt>
      <trkpt lat="45.98908" lon="6.47307">
        <ele>1557.47</ele>
        <time>2019-01-20T09:28:32Z</time>
      </trkpt>
      <trkpt lat="45.98916" lon="6.47319">
        <ele>1560.84</ele>
        <time>2019-01-20T09:28:48Z</time>
      </trkpt>
      <trkpt lat="45.98925" lon="6.47333">
        <ele>1563.72</ele>
        <time>2019-01-20T09:29:05Z</time>
      </trkpt>
      <trkpt lat="45.98931" lon="6.4734">
        <ele>1566.12</ele>
        <time>2019-01-20T09:29:19Z</time>
      </trkpt>
      <trkpt lat="45.98937" lon="6.47354">
        <ele>1569.49</ele>
        <time>2019-01-20T09:29:36Z</time>
      </trkpt>
      <trkpt lat="45.98946" lon="6.47363">
        <ele>1570.45</ele>
        <time>2019-01-20T09:29:48Z</time>
      </trkpt>
      <trkpt lat="45.98953" lon="6.47366">
        <ele>1571.41</ele>
        <time>2019-01-20T09:29:56Z</time>
      </trkpt>
      <trkpt lat="45.98965" lon="6.47365">
        <ele>1573.33</ele>
        <time>2019-01-20T09:30:10Z</time>
      </trkpt>
      <trkpt lat="45.98979" lon="6.47363">
        <ele>1576.22</ele>
        <time>2019-01-20T09:30:27Z</time>
      </trkpt>
      <trkpt lat="45.98987" lon="6.47362">
        <ele>1577.66</ele>
        <time>2019-01-20T09:30:36Z</time>
      </trkpt>
      <trkpt lat="45.98997" lon="6.47364">
        <ele>1579.58</ele>
        <time>2019-01-20T09:30:49Z</time>
      </trkpt>
      <trkpt lat="45.98999" lon="6.47366">
        <ele>1580.06</ele>
        <time>2019-01-20T09:30:52Z</time>
      </trkpt>
      <trkpt lat="45.99012" lon="6.47361">
        <ele>1581.03</ele>
        <time>2019-01-20T09:31:07Z</time>
      </trkpt>
      <trkpt lat="45.99018" lon="6.47359">
        <ele>1579.58</ele>
        <time>2019-01-20T09:31:14Z</time>
      </trkpt>
      <trkpt lat="45.99023" lon="6.47358">
        <ele>1581.03</ele>
        <time>2019-01-20T09:31:19Z</time>
      </trkpt>
      <trkpt lat="45.99037" lon="6.47362">
        <ele>1583.91</ele>
        <time>2019-01-20T09:31:36Z</time>
      </trkpt>
      <trkpt lat="45.99038" lon="6.47363">
        <ele>1583.91</ele>
        <time>2019-01-20T09:31:38Z</time>
      </trkpt>
      <trkpt lat="45.99051" lon="6.47373">
        <ele>1586.31</ele>
        <time>2019-01-20T09:31:54Z</time>
      </trkpt>
      <trkpt lat="45.99065" lon="6.47383">
        <ele>1587.27</ele>
        <time>2019-01-20T09:32:10Z</time>
      </trkpt>
      <trkpt lat="45.99075" lon="6.47396">
        <ele>1588.24</ele>
        <time>2019-01-20T09:32:26Z</time>
      </trkpt>
      <trkpt lat="45.99084" lon="6.4741">
        <ele>1590.16</ele>
        <time>2019-01-20T09:32:41Z</time>
      </trkpt>
      <trkpt lat="45.99093" lon="6.47423">
        <ele>1592.08</ele>
        <time>2019-01-20T09:32:56Z</time>
      </trkpt>
      <trkpt lat="45.99105" lon="6.47437">
        <ele>1594</ele>
        <time>2019-01-20T09:33:13Z</time>
      </trkpt>
      <trkpt lat="45.99112" lon="6.47445">
        <ele>1594.48</ele>
        <time>2019-01-20T09:33:24Z</time>
      </trkpt>
      <trkpt lat="45.99123" lon="6.47454">
        <ele>1596.41</ele>
        <time>2019-01-20T09:33:40Z</time>
      </trkpt>
      <trkpt lat="45.99133" lon="6.47464">
        <ele>1598.33</ele>
        <time>2019-01-20T09:33:55Z</time>
      </trkpt>
      <trkpt lat="45.99143" lon="6.47474">
        <ele>1600.25</ele>
        <time>2019-01-20T09:34:10Z</time>
      </trkpt>
      <trkpt lat="45.99149" lon="6.47478">
        <ele>1600.73</ele>
        <time>2019-01-20T09:34:17Z</time>
      </trkpt>
      <trkpt lat="45.99162" lon="6.47485">
        <ele>1603.62</ele>
        <time>2019-01-20T09:34:35Z</time>
      </trkpt>
      <trkpt lat="45.99174" lon="6.4749">
        <ele>1606.98</ele>
        <time>2019-01-20T09:34:50Z</time>
      </trkpt>
      <trkpt lat="45.99185" lon="6.47495">
        <ele>1609.38</ele>
        <time>2019-01-20T09:35:05Z</time>
      </trkpt>
      <trkpt lat="45.99194" lon="6.475">
        <ele>1611.31</ele>
        <time>2019-01-20T09:35:15Z</time>
      </trkpt>
      <trkpt lat="45.99207" lon="6.47509">
        <ele>1610.83</ele>
        <time>2019-01-20T09:35:29Z</time>
      </trkpt>
      <trkpt lat="45.99217" lon="6.4752">
        <ele>1612.27</ele>
        <time>2019-01-20T09:35:44Z</time>
      </trkpt>
      <trkpt lat="45.99219" lon="6.47523">
        <ele>1612.27</ele>
        <time>2019-01-20T09:35:47Z</time>
      </trkpt>
      <trkpt lat="45.99229" lon="6.47526">
        <ele>1616.11</ele>
        <time>2019-01-20T09:36:03Z</time>
      </trkpt>
      <trkpt lat="45.99226" lon="6.47523">
        <ele>1614.19</ele>
        <time>2019-01-20T09:36:18Z</time>
      </trkpt>
      <trkpt lat="45.99226" lon="6.47522">
        <ele>1615.15</ele>
        <time>2019-01-20T09:36:45Z</time>
      </trkpt>
      <trkpt lat="45.99228" lon="6.47519">
        <ele>1615.15</ele>
        <time>2019-01-20T09:37:07Z</time>
      </trkpt>
      <trkpt lat="45.99228" lon="6.47522">
        <ele>1615.15</ele>
        <time>2019-01-20T09:37:30Z</time>
      </trkpt>
      <trkpt lat="45.99227" lon="6.47524">
        <ele>1615.15</ele>
        <time>2019-01-20T09:38:13Z</time>
      </trkpt>
      <trkpt lat="45.99225" lon="6.47528">
        <ele>1614.19</ele>
        <time>2019-01-20T09:38:42Z</time>
      </trkpt>
      <trkpt lat="45.99226" lon="6.4753">
        <ele>1614.19</ele>
        <time>2019-01-20T09:39:13Z</time>
      </trkpt>
      <trkpt lat="45.99224" lon="6.47527">
        <ele>1614.19</ele>
        <time>2019-01-20T09:39:42Z</time>
      </trkpt>
      <trkpt lat="45.99225" lon="6.47527">
        <ele>1615.15</ele>
        <time>2019-01-20T09:40:18Z</time>
      </trkpt>
      <trkpt lat="45.9923" lon="6.47527">
        <ele>1615.63</ele>
        <time>2019-01-20T09:40:39Z</time>
      </trkpt>
      <trkpt lat="45.99229" lon="6.47522">
        <ele>1615.63</ele>
        <time>2019-01-20T09:40:57Z</time>
      </trkpt>
      <trkpt lat="45.99228" lon="6.47504">
        <ele>1617.56</ele>
        <time>2019-01-20T09:41:12Z</time>
      </trkpt>
      <trkpt lat="45.99227" lon="6.47486">
        <ele>1619</ele>
        <time>2019-01-20T09:41:28Z</time>
      </trkpt>
      <trkpt lat="45.99224" lon="6.47468">
        <ele>1621.88</ele>
        <time>2019-01-20T09:41:45Z</time>
      </trkpt>
      <trkpt lat="45.99226" lon="6.47454">
        <ele>1623.8</ele>
        <time>2019-01-20T09:42:01Z</time>
      </trkpt>
      <trkpt lat="45.99234" lon="6.47466">
        <ele>1626.69</ele>
        <time>2019-01-20T09:42:19Z</time>
      </trkpt>
      <trkpt lat="45.99242" lon="6.47475">
        <ele>1629.09</ele>
        <time>2019-01-20T09:42:34Z</time>
      </trkpt>
      <trkpt lat="45.99252" lon="6.47489">
        <ele>1631.98</ele>
        <time>2019-01-20T09:42:52Z</time>
      </trkpt>
      <trkpt lat="45.99261" lon="6.47502">
        <ele>1634.38</ele>
        <time>2019-01-20T09:43:10Z</time>
      </trkpt>
      <trkpt lat="45.99272" lon="6.47517">
        <ele>1637.26</ele>
        <time>2019-01-20T09:43:29Z</time>
      </trkpt>
      <trkpt lat="45.9928" lon="6.47531">
        <ele>1640.15</ele>
        <time>2019-01-20T09:43:47Z</time>
      </trkpt>
      <trkpt lat="45.99288" lon="6.47542">
        <ele>1641.59</ele>
        <time>2019-01-20T09:44:03Z</time>
      </trkpt>
      <trkpt lat="45.99298" lon="6.47556">
        <ele>1644.47</ele>
        <time>2019-01-20T09:44:22Z</time>
      </trkpt>
      <trkpt lat="45.99307" lon="6.47569">
        <ele>1646.4</ele>
        <time>2019-01-20T09:44:40Z</time>
      </trkpt>
      <trkpt lat="45.99318" lon="6.47584">
        <ele>1648.32</ele>
        <time>2019-01-20T09:44:59Z</time>
      </trkpt>
      <trkpt lat="45.99326" lon="6.47599">
        <ele>1650.72</ele>
        <time>2019-01-20T09:45:16Z</time>
      </trkpt>
      <trkpt lat="45.99334" lon="6.47615">
        <ele>1653.6</ele>
        <time>2019-01-20T09:45:36Z</time>
      </trkpt>
      <trkpt lat="45.9934" lon="6.47628">
        <ele>1656.49</ele>
        <time>2019-01-20T09:45:52Z</time>
      </trkpt>
      <trkpt lat="45.99351" lon="6.4764">
        <ele>1658.89</ele>
        <time>2019-01-20T09:46:10Z</time>
      </trkpt>
      <trkpt lat="45.99359" lon="6.47653">
        <ele>1661.78</ele>
        <time>2019-01-20T09:46:28Z</time>
      </trkpt>
      <trkpt lat="45.99369" lon="6.47665">
        <ele>1664.66</ele>
        <time>2019-01-20T09:46:46Z</time>
      </trkpt>
      <trkpt lat="45.99369" lon="6.47659">
        <ele>1667.54</ele>
        <time>2019-01-20T09:47:00Z</time>
      </trkpt>
      <trkpt lat="45.9937" lon="6.47644">
        <ele>1670.91</ele>
        <time>2019-01-20T09:47:18Z</time>
      </trkpt>
      <trkpt lat="45.99368" lon="6.47628">
        <ele>1672.83</ele>
        <time>2019-01-20T09:47:35Z</time>
      </trkpt>
      <trkpt lat="45.9937" lon="6.47611">
        <ele>1674.27</ele>
        <time>2019-01-20T09:47:51Z</time>
      </trkpt>
      <trkpt lat="45.99374" lon="6.47593">
        <ele>1677.16</ele>
        <time>2019-01-20T09:48:09Z</time>
      </trkpt>
      <trkpt lat="45.99374" lon="6.4758">
        <ele>1680.04</ele>
        <time>2019-01-20T09:48:27Z</time>
      </trkpt>
      <trkpt lat="45.99374" lon="6.47566">
        <ele>1683.41</ele>
        <time>2019-01-20T09:48:45Z</time>
      </trkpt>
      <trkpt lat="45.99371" lon="6.47551">
        <ele>1685.81</ele>
        <time>2019-01-20T09:49:02Z</time>
      </trkpt>
      <trkpt lat="45.99372" lon="6.4754">
        <ele>1688.69</ele>
        <time>2019-01-20T09:49:20Z</time>
      </trkpt>
      <trkpt lat="45.99375" lon="6.47526">
        <ele>1691.1</ele>
        <time>2019-01-20T09:49:37Z</time>
      </trkpt>
      <trkpt lat="45.99387" lon="6.47527">
        <ele>1693.98</ele>
        <time>2019-01-20T09:49:55Z</time>
      </trkpt>
      <trkpt lat="45.99395" lon="6.47532">
        <ele>1697.34</ele>
        <time>2019-01-20T09:50:11Z</time>
      </trkpt>
      <trkpt lat="45.99405" lon="6.47538">
        <ele>1700.23</ele>
        <time>2019-01-20T09:50:26Z</time>
      </trkpt>
      <trkpt lat="45.99416" lon="6.47543">
        <ele>1703.59</ele>
        <time>2019-01-20T09:50:45Z</time>
      </trkpt>
      <trkpt lat="45.99418" lon="6.47534">
        <ele>1706.96</ele>
        <time>2019-01-20T09:50:58Z</time>
      </trkpt>
      <trkpt lat="45.99421" lon="6.47522">
        <ele>1709.84</ele>
        <time>2019-01-20T09:51:14Z</time>
      </trkpt>
      <trkpt lat="45.99422" lon="6.47509">
        <ele>1711.28</ele>
        <time>2019-01-20T09:51:28Z</time>
      </trkpt>
      <trkpt lat="45.99423" lon="6.47497">
        <ele>1714.65</ele>
        <time>2019-01-20T09:51:43Z</time>
      </trkpt>
      <trkpt lat="45.99428" lon="6.47485">
        <ele>1718.01</ele>
        <time>2019-01-20T09:51:58Z</time>
      </trkpt>
      <trkpt lat="45.99438" lon="6.4748">
        <ele>1719.94</ele>
        <time>2019-01-20T09:52:15Z</time>
      </trkpt>
      <trkpt lat="45.99447" lon="6.47473">
        <ele>1722.34</ele>
        <time>2019-01-20T09:52:31Z</time>
      </trkpt>
      <trkpt lat="45.99454" lon="6.47463">
        <ele>1724.74</ele>
        <time>2019-01-20T09:52:47Z</time>
      </trkpt>
      <trkpt lat="45.9946" lon="6.47466">
        <ele>1727.15</ele>
        <time>2019-01-20T09:53:02Z</time>
      </trkpt>
      <trkpt lat="45.99465" lon="6.47479">
        <ele>1730.51</ele>
        <time>2019-01-20T09:53:20Z</time>
      </trkpt>
      <trkpt lat="45.9947" lon="6.4749">
        <ele>1733.39</ele>
        <time>2019-01-20T09:53:35Z</time>
      </trkpt>
      <trkpt lat="45.99481" lon="6.475">
        <ele>1735.8</ele>
        <time>2019-01-20T09:53:55Z</time>
      </trkpt>
      <trkpt lat="45.99487" lon="6.47502">
        <ele>1739.16</ele>
        <time>2019-01-20T09:54:10Z</time>
      </trkpt>
      <trkpt lat="45.99494" lon="6.47495">
        <ele>1741.57</ele>
        <time>2019-01-20T09:54:26Z</time>
      </trkpt>
      <trkpt lat="45.99503" lon="6.47497">
        <ele>1745.41</ele>
        <time>2019-01-20T09:54:43Z</time>
      </trkpt>
      <trkpt lat="45.99508" lon="6.47506">
        <ele>1747.33</ele>
        <time>2019-01-20T09:55:01Z</time>
      </trkpt>
      <trkpt lat="45.99507" lon="6.47506">
        <ele>1746.37</ele>
        <time>2019-01-20T09:55:10Z</time>
      </trkpt>
      <trkpt lat="45.99507" lon="6.47505">
        <ele>1746.37</ele>
        <time>2019-01-20T09:55:48Z</time>
      </trkpt>
      <trkpt lat="45.99508" lon="6.47505">
        <ele>1746.37</ele>
        <time>2019-01-20T09:56:21Z</time>
      </trkpt>
      <trkpt lat="45.99509" lon="6.47506">
        <ele>1745.89</ele>
        <time>2019-01-20T09:56:43Z</time>
      </trkpt>
      <trkpt lat="45.99511" lon="6.47506">
        <ele>1745.89</ele>
        <time>2019-01-20T09:57:14Z</time>
      </trkpt>
      <trkpt lat="45.99511" lon="6.47508">
        <ele>1745.89</ele>
        <time>2019-01-20T09:57:30Z</time>
      </trkpt>
      <trkpt lat="45.99512" lon="6.47508">
        <ele>1747.33</ele>
        <time>2019-01-20T09:57:34Z</time>
      </trkpt>
      <trkpt lat="45.9951" lon="6.47509">
        <ele>1748.78</ele>
        <time>2019-01-20T09:57:54Z</time>
      </trkpt>
      <trkpt lat="45.99507" lon="6.47507">
        <ele>1747.33</ele>
        <time>2019-01-20T09:58:24Z</time>
      </trkpt>
      <trkpt lat="45.99507" lon="6.47507">
        <ele>1747.81</ele>
        <time>2019-01-20T09:58:31Z</time>
      </trkpt>
      <trkpt lat="45.99506" lon="6.4751">
        <ele>1748.78</ele>
        <time>2019-01-20T09:59:00Z</time>
      </trkpt>
      <trkpt lat="45.99506" lon="6.4751">
        <ele>1746.85</ele>
        <time>2019-01-20T09:59:02Z</time>
      </trkpt>
      <trkpt lat="45.99512" lon="6.47511">
        <ele>1746.85</ele>
        <time>2019-01-20T09:59:18Z</time>
      </trkpt>
      <trkpt lat="45.99522" lon="6.47517">
        <ele>1748.78</ele>
        <time>2019-01-20T09:59:35Z</time>
      </trkpt>
      <trkpt lat="45.9953" lon="6.47525">
        <ele>1750.22</ele>
        <time>2019-01-20T09:59:48Z</time>
      </trkpt>
      <trkpt lat="45.99543" lon="6.47533">
        <ele>1748.29</ele>
        <time>2019-01-20T09:59:57Z</time>
      </trkpt>
      <trkpt lat="45.99553" lon="6.4754">
        <ele>1744.45</ele>
        <time>2019-01-20T10:00:00Z</time>
      </trkpt>
      <trkpt lat="45.99562" lon="6.47547">
        <ele>1743.49</ele>
        <time>2019-01-20T10:00:03Z</time>
      </trkpt>
      <trkpt lat="45.99573" lon="6.47553">
        <ele>1743.49</ele>
        <time>2019-01-20T10:00:17Z</time>
      </trkpt>
      <trkpt lat="45.99584" lon="6.47558">
        <ele>1743.49</ele>
        <time>2019-01-20T10:00:31Z</time>
      </trkpt>
      <trkpt lat="45.99584" lon="6.47559">
        <ele>1744.45</ele>
        <time>2019-01-20T10:00:33Z</time>
      </trkpt>
      <trkpt lat="45.99588" lon="6.47559">
        <ele>1744.93</ele>
        <time>2019-01-20T10:00:41Z</time>
      </trkpt>
      <trkpt lat="45.99591" lon="6.47556">
        <ele>1743.97</ele>
        <time>2019-01-20T10:00:44Z</time>
      </trkpt>
      <trkpt lat="45.99611" lon="6.47542">
        <ele>1738.68</ele>
        <time>2019-01-20T10:00:54Z</time>
      </trkpt>
      <trkpt lat="45.9962" lon="6.47547">
        <ele>1737.24</ele>
        <time>2019-01-20T10:01:01Z</time>
      </trkpt>
      <trkpt lat="45.9963" lon="6.47562">
        <ele>1737.72</ele>
        <time>2019-01-20T10:01:17Z</time>
      </trkpt>
      <trkpt lat="45.99637" lon="6.47573">
        <ele>1739.16</ele>
        <time>2019-01-20T10:01:32Z</time>
      </trkpt>
      <trkpt lat="45.99642" lon="6.47588">
        <ele>1740.12</ele>
        <time>2019-01-20T10:01:47Z</time>
      </trkpt>
      <trkpt lat="45.99646" lon="6.47595">
        <ele>1741.08</ele>
        <time>2019-01-20T10:01:58Z</time>
      </trkpt>
      <trkpt lat="45.99657" lon="6.47597">
        <ele>1742.05</ele>
        <time>2019-01-20T10:02:14Z</time>
      </trkpt>
      <trkpt lat="45.99666" lon="6.47607">
        <ele>1742.53</ele>
        <time>2019-01-20T10:02:28Z</time>
      </trkpt>
      <trkpt lat="45.99675" lon="6.47616">
        <ele>1744.45</ele>
        <time>2019-01-20T10:02:45Z</time>
      </trkpt>
      <trkpt lat="45.99687" lon="6.47623">
        <ele>1746.37</ele>
        <time>2019-01-20T10:03:03Z</time>
      </trkpt>
      <trkpt lat="45.99698" lon="6.47629">
        <ele>1748.29</ele>
        <time>2019-01-20T10:03:19Z</time>
      </trkpt>
      <trkpt lat="45.9971" lon="6.47628">
        <ele>1748.29</ele>
        <time>2019-01-20T10:03:32Z</time>
      </trkpt>
      <trkpt lat="45.9972" lon="6.47626">
        <ele>1748.78</ele>
        <time>2019-01-20T10:03:48Z</time>
      </trkpt>
      <trkpt lat="45.99731" lon="6.47628">
        <ele>1750.7</ele>
        <time>2019-01-20T10:04:04Z</time>
      </trkpt>
      <trkpt lat="45.9974" lon="6.47629">
        <ele>1754.06</ele>
        <time>2019-01-20T10:04:19Z</time>
      </trkpt>
      <trkpt lat="45.99747" lon="6.47633">
        <ele>1756.47</ele>
        <time>2019-01-20T10:04:34Z</time>
      </trkpt>
      <trkpt lat="45.99756" lon="6.47629">
        <ele>1758.39</ele>
        <time>2019-01-20T10:04:49Z</time>
      </trkpt>
      <trkpt lat="45.99767" lon="6.47627">
        <ele>1760.79</ele>
        <time>2019-01-20T10:05:07Z</time>
      </trkpt>
      <trkpt lat="45.99778" lon="6.47623">
        <ele>1763.68</ele>
        <time>2019-01-20T10:05:23Z</time>
      </trkpt>
      <trkpt lat="45.99791" lon="6.47619">
        <ele>1764.16</ele>
        <time>2019-01-20T10:05:38Z</time>
      </trkpt>
      <trkpt lat="45.99801" lon="6.47617">
        <ele>1767.04</ele>
        <time>2019-01-20T10:05:52Z</time>
      </trkpt>
      <trkpt lat="45.99815" lon="6.47618">
        <ele>1769.44</ele>
        <time>2019-01-20T10:06:10Z</time>
      </trkpt>
      <trkpt lat="45.99825" lon="6.47624">
        <ele>1771.37</ele>
        <time>2019-01-20T10:06:24Z</time>
      </trkpt>
      <trkpt lat="45.99833" lon="6.47636">
        <ele>1772.81</ele>
        <time>2019-01-20T10:06:41Z</time>
      </trkpt>
      <trkpt lat="45.99837" lon="6.47642">
        <ele>1775.21</ele>
        <time>2019-01-20T10:06:58Z</time>
      </trkpt>
      <trkpt lat="45.99839" lon="6.47637">
        <ele>1777.13</ele>
        <time>2019-01-20T10:07:13Z</time>
      </trkpt>
      <trkpt lat="45.99845" lon="6.4764">
        <ele>1780.02</ele>
        <time>2019-01-20T10:07:30Z</time>
      </trkpt>
      <trkpt lat="45.9985" lon="6.47651">
        <ele>1783.38</ele>
        <time>2019-01-20T10:07:47Z</time>
      </trkpt>
      <trkpt lat="45.99858" lon="6.47656">
        <ele>1786.75</ele>
        <time>2019-01-20T10:08:05Z</time>
      </trkpt>
      <trkpt lat="45.99859" lon="6.47646">
        <ele>1788.19</ele>
        <time>2019-01-20T10:08:19Z</time>
      </trkpt>
      <trkpt lat="45.99861" lon="6.47633">
        <ele>1790.59</ele>
        <time>2019-01-20T10:08:35Z</time>
      </trkpt>
      <trkpt lat="45.99862" lon="6.47624">
        <ele>1793.48</ele>
        <time>2019-01-20T10:08:47Z</time>
      </trkpt>
      <trkpt lat="45.99859" lon="6.47608">
        <ele>1795.88</ele>
        <time>2019-01-20T10:09:05Z</time>
      </trkpt>
      <trkpt lat="45.99855" lon="6.47595">
        <ele>1798.76</ele>
        <time>2019-01-20T10:09:20Z</time>
      </trkpt>
      <trkpt lat="45.99853" lon="6.47583">
        <ele>1801.65</ele>
        <time>2019-01-20T10:09:35Z</time>
      </trkpt>
      <trkpt lat="45.99852" lon="6.47578">
        <ele>1803.57</ele>
        <time>2019-01-20T10:09:51Z</time>
      </trkpt>
      <trkpt lat="45.99859" lon="6.47572">
        <ele>1806.94</ele>
        <time>2019-01-20T10:10:06Z</time>
      </trkpt>
      <trkpt lat="45.99855" lon="6.47569">
        <ele>1807.9</ele>
        <time>2019-01-20T10:10:19Z</time>
      </trkpt>
      <trkpt lat="45.99863" lon="6.47567">
        <ele>1811.26</ele>
        <time>2019-01-20T10:10:32Z</time>
      </trkpt>
      <trkpt lat="45.99866" lon="6.47564">
        <ele>1812.22</ele>
        <time>2019-01-20T10:10:45Z</time>
      </trkpt>
      <trkpt lat="45.99861" lon="6.47558">
        <ele>1815.59</ele>
        <time>2019-01-20T10:10:57Z</time>
      </trkpt>
      <trkpt lat="45.99856" lon="6.47553">
        <ele>1817.03</ele>
        <time>2019-01-20T10:11:09Z</time>
      </trkpt>
      <trkpt lat="45.9985" lon="6.47545">
        <ele>1820.87</ele>
        <time>2019-01-20T10:11:24Z</time>
      </trkpt>
      <trkpt lat="45.99846" lon="6.47538">
        <ele>1822.8</ele>
        <time>2019-01-20T10:11:37Z</time>
      </trkpt>
      <trkpt lat="45.99849" lon="6.47534">
        <ele>1823.76</ele>
        <time>2019-01-20T10:11:44Z</time>
      </trkpt>
      <trkpt lat="45.99859" lon="6.47522">
        <ele>1827.12</ele>
        <time>2019-01-20T10:12:00Z</time>
      </trkpt>
      <trkpt lat="45.99869" lon="6.47509">
        <ele>1829.05</ele>
        <time>2019-01-20T10:12:17Z</time>
      </trkpt>
      <trkpt lat="45.99874" lon="6.47503">
        <ele>1832.41</ele>
        <time>2019-01-20T10:12:29Z</time>
      </trkpt>
      <trkpt lat="45.99884" lon="6.47502">
        <ele>1835.29</ele>
        <time>2019-01-20T10:12:44Z</time>
      </trkpt>
      <trkpt lat="45.99894" lon="6.47504">
        <ele>1837.7</ele>
        <time>2019-01-20T10:13:01Z</time>
      </trkpt>
      <trkpt lat="45.99902" lon="6.47504">
        <ele>1839.62</ele>
        <time>2019-01-20T10:13:16Z</time>
      </trkpt>
      <trkpt lat="45.99915" lon="6.4751">
        <ele>1842.02</ele>
        <time>2019-01-20T10:13:33Z</time>
      </trkpt>
      <trkpt lat="45.99922" lon="6.47514">
        <ele>1845.39</ele>
        <time>2019-01-20T10:13:48Z</time>
      </trkpt>
      <trkpt lat="45.99926" lon="6.47523">
        <ele>1848.27</ele>
        <time>2019-01-20T10:14:04Z</time>
      </trkpt>
      <trkpt lat="45.99929" lon="6.47527">
        <ele>1850.19</ele>
        <time>2019-01-20T10:14:18Z</time>
      </trkpt>
      <trkpt lat="45.99934" lon="6.47517">
        <ele>1853.08</ele>
        <time>2019-01-20T10:14:34Z</time>
      </trkpt>
      <trkpt lat="45.99939" lon="6.47506">
        <ele>1854.52</ele>
        <time>2019-01-20T10:14:48Z</time>
      </trkpt>
      <trkpt lat="45.99942" lon="6.47511">
        <ele>1857.89</ele>
        <time>2019-01-20T10:15:03Z</time>
      </trkpt>
      <trkpt lat="45.99944" lon="6.47522">
        <ele>1861.25</ele>
        <time>2019-01-20T10:15:19Z</time>
      </trkpt>
      <trkpt lat="45.99948" lon="6.47525">
        <ele>1863.65</ele>
        <time>2019-01-20T10:15:34Z</time>
      </trkpt>
      <trkpt lat="45.99956" lon="6.47516">
        <ele>1866.06</ele>
        <time>2019-01-20T10:15:50Z</time>
      </trkpt>
      <trkpt lat="45.99959" lon="6.47502">
        <ele>1868.46</ele>
        <time>2019-01-20T10:16:08Z</time>
      </trkpt>
      <trkpt lat="45.99961" lon="6.47501">
        <ele>1871.34</ele>
        <time>2019-01-20T10:16:27Z</time>
      </trkpt>
      <trkpt lat="45.99965" lon="6.47501">
        <ele>1873.27</ele>
        <time>2019-01-20T10:16:45Z</time>
      </trkpt>
      <trkpt lat="45.99967" lon="6.47505">
        <ele>1875.67</ele>
        <time>2019-01-20T10:17:03Z</time>
      </trkpt>
      <trkpt lat="45.99967" lon="6.47516">
        <ele>1878.55</ele>
        <time>2019-01-20T10:17:19Z</time>
      </trkpt>
      <trkpt lat="45.99967" lon="6.47519">
        <ele>1879.51</ele>
        <time>2019-01-20T10:17:39Z</time>
      </trkpt>
      <trkpt lat="45.9997" lon="6.47522">
        <ele>1880.96</ele>
        <time>2019-01-20T10:17:54Z</time>
      </trkpt>
      <trkpt lat="45.99974" lon="6.47521">
        <ele>1882.4</ele>
        <time>2019-01-20T10:18:18Z</time>
      </trkpt>
      <trkpt lat="45.99978" lon="6.47512">
        <ele>1885.28</ele>
        <time>2019-01-20T10:18:34Z</time>
      </trkpt>
      <trkpt lat="45.99979" lon="6.47515">
        <ele>1887.69</ele>
        <time>2019-01-20T10:18:49Z</time>
      </trkpt>
      <trkpt lat="45.99984" lon="6.47519">
        <ele>1889.61</ele>
        <time>2019-01-20T10:19:08Z</time>
      </trkpt>
      <trkpt lat="45.99988" lon="6.47512">
        <ele>1892.49</ele>
        <time>2019-01-20T10:19:21Z</time>
      </trkpt>
      <trkpt lat="45.99988" lon="6.47518">
        <ele>1894.42</ele>
        <time>2019-01-20T10:19:36Z</time>
      </trkpt>
      <trkpt lat="45.99992" lon="6.47516">
        <ele>1895.38</ele>
        <time>2019-01-20T10:19:50Z</time>
      </trkpt>
      <trkpt lat="45.99993" lon="6.47517">
        <ele>1896.34</ele>
        <time>2019-01-20T10:20:03Z</time>
      </trkpt>
      <trkpt lat="45.99994" lon="6.47528">
        <ele>1899.22</ele>
        <time>2019-01-20T10:20:19Z</time>
      </trkpt>
      <trkpt lat="45.99994" lon="6.47544">
        <ele>1902.59</ele>
        <time>2019-01-20T10:20:37Z</time>
      </trkpt>
      <trkpt lat="45.99994" lon="6.47562">
        <ele>1904.99</ele>
        <time>2019-01-20T10:20:56Z</time>
      </trkpt>
      <trkpt lat="46.00001" lon="6.47564">
        <ele>1908.35</ele>
        <time>2019-01-20T10:21:12Z</time>
      </trkpt>
      <trkpt lat="46.00009" lon="6.4756">
        <ele>1911.24</ele>
        <time>2019-01-20T10:21:27Z</time>
      </trkpt>
      <trkpt lat="46.00017" lon="6.47553">
        <ele>1913.64</ele>
        <time>2019-01-20T10:21:41Z</time>
      </trkpt>
      <trkpt lat="46.00025" lon="6.47541">
        <ele>1917.01</ele>
        <time>2019-01-20T10:21:58Z</time>
      </trkpt>
      <trkpt lat="46.00031" lon="6.4753">
        <ele>1919.41</ele>
        <time>2019-01-20T10:22:14Z</time>
      </trkpt>
      <trkpt lat="46.00037" lon="6.47526">
        <ele>1921.81</ele>
        <time>2019-01-20T10:22:30Z</time>
      </trkpt>
      <trkpt lat="46.0004" lon="6.47536">
        <ele>1924.7</ele>
        <time>2019-01-20T10:22:47Z</time>
      </trkpt>
      <trkpt lat="46.00049" lon="6.47549">
        <ele>1928.54</ele>
        <time>2019-01-20T10:23:05Z</time>
      </trkpt>
      <trkpt lat="46.00056" lon="6.47544">
        <ele>1930.95</ele>
        <time>2019-01-20T10:23:20Z</time>
      </trkpt>
      <trkpt lat="46.00061" lon="6.47536">
        <ele>1932.87</ele>
        <time>2019-01-20T10:23:34Z</time>
      </trkpt>
      <trkpt lat="46.00065" lon="6.47527">
        <ele>1936.23</ele>
        <time>2019-01-20T10:23:48Z</time>
      </trkpt>
      <trkpt lat="46.00067" lon="6.47518">
        <ele>1938.64</ele>
        <time>2019-01-20T10:24:04Z</time>
      </trkpt>
      <trkpt lat="46.00068" lon="6.47518">
        <ele>1940.56</ele>
        <time>2019-01-20T10:24:19Z</time>
      </trkpt>
      <trkpt lat="46.00074" lon="6.47529">
        <ele>1943.92</ele>
        <time>2019-01-20T10:24:37Z</time>
      </trkpt>
      <trkpt lat="46.00086" lon="6.47535">
        <ele>1947.29</ele>
        <time>2019-01-20T10:24:57Z</time>
      </trkpt>
      <trkpt lat="46.00094" lon="6.47526">
        <ele>1950.17</ele>
        <time>2019-01-20T10:25:14Z</time>
      </trkpt>
      <trkpt lat="46.00097" lon="6.47517">
        <ele>1953.06</ele>
        <time>2019-01-20T10:25:29Z</time>
      </trkpt>
      <trkpt lat="46.00099" lon="6.47506">
        <ele>1955.46</ele>
        <time>2019-01-20T10:25:44Z</time>
      </trkpt>
      <trkpt lat="46.00103" lon="6.47495">
        <ele>1957.86</ele>
        <time>2019-01-20T10:26:01Z</time>
      </trkpt>
      <trkpt lat="46.00105" lon="6.47484">
        <ele>1961.23</ele>
        <time>2019-01-20T10:26:18Z</time>
      </trkpt>
      <trkpt lat="46.00109" lon="6.47474">
        <ele>1963.15</ele>
        <time>2019-01-20T10:26:33Z</time>
      </trkpt>
      <trkpt lat="46.00106" lon="6.47457">
        <ele>1966.51</ele>
        <time>2019-01-20T10:26:47Z</time>
      </trkpt>
      <trkpt lat="46.00105" lon="6.47447">
        <ele>1969.88</ele>
        <time>2019-01-20T10:27:01Z</time>
      </trkpt>
      <trkpt lat="46.00106" lon="6.47434">
        <ele>1972.76</ele>
        <time>2019-01-20T10:27:18Z</time>
      </trkpt>
      <trkpt lat="46.00109" lon="6.47436">
        <ele>1974.2</ele>
        <time>2019-01-20T10:27:31Z</time>
      </trkpt>
      <trkpt lat="46.00119" lon="6.47433">
        <ele>1977.09</ele>
        <time>2019-01-20T10:27:49Z</time>
      </trkpt>
      <trkpt lat="46.00128" lon="6.47431">
        <ele>1979.97</ele>
        <time>2019-01-20T10:28:06Z</time>
      </trkpt>
      <trkpt lat="46.00139" lon="6.47428">
        <ele>1983.82</ele>
        <time>2019-01-20T10:28:25Z</time>
      </trkpt>
      <trkpt lat="46.00149" lon="6.47427">
        <ele>1986.7</ele>
        <time>2019-01-20T10:28:44Z</time>
      </trkpt>
      <trkpt lat="46.00155" lon="6.47431">
        <ele>1989.59</ele>
        <time>2019-01-20T10:29:01Z</time>
      </trkpt>
      <trkpt lat="46.00158" lon="6.47433">
        <ele>1991.03</ele>
        <time>2019-01-20T10:29:18Z</time>
      </trkpt>
      <trkpt lat="46.00159" lon="6.47418">
        <ele>1994.39</ele>
        <time>2019-01-20T10:29:35Z</time>
      </trkpt>
      <trkpt lat="46.00164" lon="6.4741">
        <ele>1997.76</ele>
        <time>2019-01-20T10:29:54Z</time>
      </trkpt>
      <trkpt lat="46.00163" lon="6.47399">
        <ele>2001.12</ele>
        <time>2019-01-20T10:30:12Z</time>
      </trkpt>
      <trkpt lat="46.00166" lon="6.47387">
        <ele>2004.49</ele>
        <time>2019-01-20T10:30:27Z</time>
      </trkpt>
      <trkpt lat="46.00165" lon="6.47369">
        <ele>2007.37</ele>
        <time>2019-01-20T10:30:44Z</time>
      </trkpt>
      <trkpt lat="46.00171" lon="6.47369">
        <ele>2009.77</ele>
        <time>2019-01-20T10:30:58Z</time>
      </trkpt>
      <trkpt lat="46.00178" lon="6.47369">
        <ele>2012.66</ele>
        <time>2019-01-20T10:31:11Z</time>
      </trkpt>
      <trkpt lat="46.00192" lon="6.47373">
        <ele>2015.54</ele>
        <time>2019-01-20T10:31:33Z</time>
      </trkpt>
      <trkpt lat="46.00201" lon="6.47371">
        <ele>2016.98</ele>
        <time>2019-01-20T10:31:50Z</time>
      </trkpt>
      <trkpt lat="46.00212" lon="6.47368">
        <ele>2019.87</ele>
        <time>2019-01-20T10:32:08Z</time>
      </trkpt>
      <trkpt lat="46.00222" lon="6.47367">
        <ele>2022.27</ele>
        <time>2019-01-20T10:32:23Z</time>
      </trkpt>
      <trkpt lat="46.00233" lon="6.47369">
        <ele>2025.64</ele>
        <time>2019-01-20T10:32:38Z</time>
      </trkpt>
      <trkpt lat="46.0024" lon="6.47377">
        <ele>2029</ele>
        <time>2019-01-20T10:32:55Z</time>
      </trkpt>
      <trkpt lat="46.00247" lon="6.47384">
        <ele>2032.36</ele>
        <time>2019-01-20T10:33:11Z</time>
      </trkpt>
      <trkpt lat="46.00254" lon="6.47389">
        <ele>2035.73</ele>
        <time>2019-01-20T10:33:29Z</time>
      </trkpt>
      <trkpt lat="46.00254" lon="6.47389">
        <ele>2035.73</ele>
        <time>2019-01-20T10:33:30Z</time>
      </trkpt>
      <trkpt lat="46.00262" lon="6.47393">
        <ele>2038.61</ele>
        <time>2019-01-20T10:33:45Z</time>
      </trkpt>
      <trkpt lat="46.00267" lon="6.47394">
        <ele>2040.54</ele>
        <time>2019-01-20T10:34:01Z</time>
      </trkpt>
      <trkpt lat="46.00268" lon="6.47394">
        <ele>2041.02</ele>
        <time>2019-01-20T10:34:18Z</time>
      </trkpt>
      <trkpt lat="46.00268" lon="6.47394">
        <ele>2041.02</ele>
        <time>2019-01-20T10:34:39Z</time>
      </trkpt>
      <trkpt lat="46.00268" lon="6.47393">
        <ele>2039.57</ele>
        <time>2019-01-20T10:34:49Z</time>
      </trkpt>
      <trkpt lat="46.00269" lon="6.47393">
        <ele>2039.09</ele>
        <time>2019-01-20T10:35:23Z</time>
      </trkpt>
      <trkpt lat="46.00269" lon="6.47393">
        <ele>2039.09</ele>
        <time>2019-01-20T10:35:50Z</time>
      </trkpt>
      <trkpt lat="46.00269" lon="6.47393">
        <ele>2039.09</ele>
        <time>2019-01-20T10:36:20Z</time>
      </trkpt>
      <trkpt lat="46.00267" lon="6.47392">
        <ele>2039.09</ele>
        <time>2019-01-20T10:36:51Z</time>
      </trkpt>
      <trkpt lat="46.00268" lon="6.47393">
        <ele>2039.09</ele>
        <time>2019-01-20T10:37:14Z</time>
      </trkpt>
      <trkpt lat="46.00268" lon="6.47396">
        <ele>2039.09</ele>
        <time>2019-01-20T10:37:55Z</time>
      </trkpt>
      <trkpt lat="46.00267" lon="6.47393">
        <ele>2040.54</ele>
        <time>2019-01-20T10:38:30Z</time>
      </trkpt>
      <trkpt lat="46.00267" lon="6.47394">
        <ele>2037.17</ele>
        <time>2019-01-20T10:38:39Z</time>
      </trkpt>
      <trkpt lat="46.00267" lon="6.47395">
        <ele>2043.9</ele>
        <time>2019-01-20T10:38:40Z</time>
      </trkpt>
      <trkpt lat="46.00267" lon="6.47394">
        <ele>2040.05</ele>
        <time>2019-01-20T10:38:41Z</time>
      </trkpt>
      <trkpt lat="46.00266" lon="6.47392">
        <ele>2041.02</ele>
        <time>2019-01-20T10:38:55Z</time>
      </trkpt>
      <trkpt lat="46.00264" lon="6.47398">
        <ele>2041.02</ele>
        <time>2019-01-20T10:39:30Z</time>
      </trkpt>
      <trkpt lat="46.00266" lon="6.47401">
        <ele>2041.02</ele>
        <time>2019-01-20T10:40:17Z</time>
      </trkpt>
      <trkpt lat="46.00266" lon="6.474">
        <ele>2041.02</ele>
        <time>2019-01-20T10:40:52Z</time>
      </trkpt>
      <trkpt lat="46.00267" lon="6.47398">
        <ele>2041.5</ele>
        <time>2019-01-20T10:41:27Z</time>
      </trkpt>
      <trkpt lat="46.00268" lon="6.47397">
        <ele>2043.42</ele>
        <time>2019-01-20T10:42:17Z</time>
      </trkpt>
      <trkpt lat="46.00266" lon="6.47398">
        <ele>2041.02</ele>
        <time>2019-01-20T10:42:44Z</time>
      </trkpt>
      <trkpt lat="46.00264" lon="6.47402">
        <ele>2040.54</ele>
        <time>2019-01-20T10:43:18Z</time>
      </trkpt>
      <trkpt lat="46.00264" lon="6.47407">
        <ele>2040.05</ele>
        <time>2019-01-20T10:43:46Z</time>
      </trkpt>
      <trkpt lat="46.00264" lon="6.47406">
        <ele>2040.05</ele>
        <time>2019-01-20T10:44:29Z</time>
      </trkpt>
      <trkpt lat="46.00266" lon="6.474">
        <ele>2041.5</ele>
        <time>2019-01-20T10:44:59Z</time>
      </trkpt>
      <trkpt lat="46.00268" lon="6.474">
        <ele>2041.5</ele>
        <time>2019-01-20T10:45:18Z</time>
      </trkpt>
      <trkpt lat="46.00271" lon="6.47397">
        <ele>2041.5</ele>
        <time>2019-01-20T10:46:04Z</time>
      </trkpt>
      <trkpt lat="46.00272" lon="6.474">
        <ele>2041.5</ele>
        <time>2019-01-20T10:46:34Z</time>
      </trkpt>
      <trkpt lat="46.0027" lon="6.47399">
        <ele>2040.54</ele>
        <time>2019-01-20T10:47:04Z</time>
      </trkpt>
      <trkpt lat="46.00276" lon="6.4739">
        <ele>2041.98</ele>
        <time>2019-01-20T10:47:26Z</time>
      </trkpt>
      <trkpt lat="46.00284" lon="6.47382">
        <ele>2043.9</ele>
        <time>2019-01-20T10:47:41Z</time>
      </trkpt>
      <trkpt lat="46.00292" lon="6.47372">
        <ele>2046.3</ele>
        <time>2019-01-20T10:47:57Z</time>
      </trkpt>
      <trkpt lat="46.00298" lon="6.4736">
        <ele>2050.15</ele>
        <time>2019-01-20T10:48:14Z</time>
      </trkpt>
      <trkpt lat="46.00305" lon="6.47355">
        <ele>2052.07</ele>
        <time>2019-01-20T10:48:30Z</time>
      </trkpt>
      <trkpt lat="46.00314" lon="6.47353">
        <ele>2055.44</ele>
        <time>2019-01-20T10:48:50Z</time>
      </trkpt>
      <trkpt lat="46.00324" lon="6.47345">
        <ele>2058.8</ele>
        <time>2019-01-20T10:49:10Z</time>
      </trkpt>
      <trkpt lat="46.00333" lon="6.47336">
        <ele>2060.72</ele>
        <time>2019-01-20T10:49:28Z</time>
      </trkpt>
      <trkpt lat="46.00337" lon="6.4733">
        <ele>2061.68</ele>
        <time>2019-01-20T10:49:35Z</time>
      </trkpt>
      <trkpt lat="46.00342" lon="6.47317">
        <ele>2062.65</ele>
        <time>2019-01-20T10:49:48Z</time>
      </trkpt>
      <trkpt lat="46.00352" lon="6.47305">
        <ele>2065.53</ele>
        <time>2019-01-20T10:50:04Z</time>
      </trkpt>
      <trkpt lat="46.00358" lon="6.47298">
        <ele>2068.89</ele>
        <time>2019-01-20T10:50:19Z</time>
      </trkpt>
      <trkpt lat="46.00363" lon="6.47292">
        <ele>2070.82</ele>
        <time>2019-01-20T10:50:32Z</time>
      </trkpt>
      <trkpt lat="46.00373" lon="6.47281">
        <ele>2071.3</ele>
        <time>2019-01-20T10:50:46Z</time>
      </trkpt>
      <trkpt lat="46.00379" lon="6.4727">
        <ele>2073.22</ele>
        <time>2019-01-20T10:51:02Z</time>
      </trkpt>
      <trkpt lat="46.00387" lon="6.47255">
        <ele>2075.14</ele>
        <time>2019-01-20T10:51:18Z</time>
      </trkpt>
      <trkpt lat="46.00394" lon="6.4724">
        <ele>2077.55</ele>
        <time>2019-01-20T10:51:35Z</time>
      </trkpt>
      <trkpt lat="46.004" lon="6.47225">
        <ele>2079.47</ele>
        <time>2019-01-20T10:51:50Z</time>
      </trkpt>
      <trkpt lat="46.00403" lon="6.47214">
        <ele>2082.83</ele>
        <time>2019-01-20T10:52:04Z</time>
      </trkpt>
      <trkpt lat="46.00405" lon="6.47199">
        <ele>2085.24</ele>
        <time>2019-01-20T10:52:21Z</time>
      </trkpt>
      <trkpt lat="46.00406" lon="6.47187">
        <ele>2088.6</ele>
        <time>2019-01-20T10:52:36Z</time>
      </trkpt>
      <trkpt lat="46.00405" lon="6.47173">
        <ele>2090.52</ele>
        <time>2019-01-20T10:52:55Z</time>
      </trkpt>
      <trkpt lat="46.00407" lon="6.47172">
        <ele>2092.93</ele>
        <time>2019-01-20T10:53:12Z</time>
      </trkpt>
      <trkpt lat="46.00413" lon="6.47177">
        <ele>2097.73</ele>
        <time>2019-01-20T10:53:29Z</time>
      </trkpt>
      <trkpt lat="46.00413" lon="6.47177">
        <ele>2096.29</ele>
        <time>2019-01-20T10:53:30Z</time>
      </trkpt>
      <trkpt lat="46.00418" lon="6.47182">
        <ele>2097.73</ele>
        <time>2019-01-20T10:53:40Z</time>
      </trkpt>
      <trkpt lat="46.00421" lon="6.47176">
        <ele>2099.66</ele>
        <time>2019-01-20T10:53:55Z</time>
      </trkpt>
      <trkpt lat="46.00425" lon="6.47161">
        <ele>2103.02</ele>
        <time>2019-01-20T10:54:12Z</time>
      </trkpt>
      <trkpt lat="46.00426" lon="6.4715">
        <ele>2105.42</ele>
        <time>2019-01-20T10:54:28Z</time>
      </trkpt>
      <trkpt lat="46.00427" lon="6.4714">
        <ele>2108.79</ele>
        <time>2019-01-20T10:54:46Z</time>
      </trkpt>
      <trkpt lat="46.00431" lon="6.47146">
        <ele>2110.23</ele>
        <time>2019-01-20T10:55:01Z</time>
      </trkpt>
      <trkpt lat="46.00437" lon="6.47151">
        <ele>2114.08</ele>
        <time>2019-01-20T10:55:18Z</time>
      </trkpt>
      <trkpt lat="46.00444" lon="6.47156">
        <ele>2117.44</ele>
        <time>2019-01-20T10:55:37Z</time>
      </trkpt>
      <trkpt lat="46.00448" lon="6.47145">
        <ele>2120.32</ele>
        <time>2019-01-20T10:55:53Z</time>
      </trkpt>
      <trkpt lat="46.00448" lon="6.47134">
        <ele>2123.21</ele>
        <time>2019-01-20T10:56:11Z</time>
      </trkpt>
      <trkpt lat="46.00448" lon="6.47122">
        <ele>2125.61</ele>
        <time>2019-01-20T10:56:28Z</time>
      </trkpt>
      <trkpt lat="46.0045" lon="6.47116">
        <ele>2127.53</ele>
        <time>2019-01-20T10:56:45Z</time>
      </trkpt>
      <trkpt lat="46.00455" lon="6.47123">
        <ele>2130.42</ele>
        <time>2019-01-20T10:57:00Z</time>
      </trkpt>
      <trkpt lat="46.00461" lon="6.4713">
        <ele>2133.3</ele>
        <time>2019-01-20T10:57:21Z</time>
      </trkpt>
      <trkpt lat="46.00463" lon="6.4712">
        <ele>2135.23</ele>
        <time>2019-01-20T10:57:37Z</time>
      </trkpt>
      <trkpt lat="46.00467" lon="6.47114">
        <ele>2137.63</ele>
        <time>2019-01-20T10:57:54Z</time>
      </trkpt>
      <trkpt lat="46.00469" lon="6.47122">
        <ele>2140.03</ele>
        <time>2019-01-20T10:58:10Z</time>
      </trkpt>
      <trkpt lat="46.00475" lon="6.47129">
        <ele>2143.88</ele>
        <time>2019-01-20T10:58:25Z</time>
      </trkpt>
      <trkpt lat="46.00481" lon="6.4713">
        <ele>2145.32</ele>
        <time>2019-01-20T10:58:44Z</time>
      </trkpt>
      <trkpt lat="46.00486" lon="6.4712">
        <ele>2148.2</ele>
        <time>2019-01-20T10:58:59Z</time>
      </trkpt>
      <trkpt lat="46.00487" lon="6.47109">
        <ele>2151.09</ele>
        <time>2019-01-20T10:59:16Z</time>
      </trkpt>
      <trkpt lat="46.00488" lon="6.47096">
        <ele>2153.49</ele>
        <time>2019-01-20T10:59:34Z</time>
      </trkpt>
      <trkpt lat="46.00491" lon="6.47086">
        <ele>2156.86</ele>
        <time>2019-01-20T10:59:51Z</time>
      </trkpt>
      <trkpt lat="46.0049" lon="6.47089">
        <ele>2158.78</ele>
        <time>2019-01-20T11:00:06Z</time>
      </trkpt>
      <trkpt lat="46.00497" lon="6.47096">
        <ele>2161.66</ele>
        <time>2019-01-20T11:00:23Z</time>
      </trkpt>
      <trkpt lat="46.00502" lon="6.47104">
        <ele>2164.55</ele>
        <time>2019-01-20T11:00:39Z</time>
      </trkpt>
      <trkpt lat="46.00504" lon="6.471">
        <ele>2166.47</ele>
        <time>2019-01-20T11:00:55Z</time>
      </trkpt>
      <trkpt lat="46.00507" lon="6.47089">
        <ele>2168.87</ele>
        <time>2019-01-20T11:01:12Z</time>
      </trkpt>
      <trkpt lat="46.00509" lon="6.47078">
        <ele>2171.76</ele>
        <time>2019-01-20T11:01:29Z</time>
      </trkpt>
      <trkpt lat="46.00511" lon="6.47082">
        <ele>2173.68</ele>
        <time>2019-01-20T11:01:45Z</time>
      </trkpt>
      <trkpt lat="46.00516" lon="6.47088">
        <ele>2176.56</ele>
        <time>2019-01-20T11:01:59Z</time>
      </trkpt>
      <trkpt lat="46.00521" lon="6.47092">
        <ele>2178.97</ele>
        <time>2019-01-20T11:02:19Z</time>
      </trkpt>
      <trkpt lat="46.00524" lon="6.47081">
        <ele>2181.85</ele>
        <time>2019-01-20T11:02:35Z</time>
      </trkpt>
      <trkpt lat="46.00525" lon="6.4707">
        <ele>2184.25</ele>
        <time>2019-01-20T11:02:50Z</time>
      </trkpt>
      <trkpt lat="46.00526" lon="6.47059">
        <ele>2187.62</ele>
        <time>2019-01-20T11:03:07Z</time>
      </trkpt>
      <trkpt lat="46.00527" lon="6.4706">
        <ele>2189.54</ele>
        <time>2019-01-20T11:03:24Z</time>
      </trkpt>
      <trkpt lat="46.00532" lon="6.47066">
        <ele>2192.42</ele>
        <time>2019-01-20T11:03:41Z</time>
      </trkpt>
      <trkpt lat="46.00536" lon="6.47071">
        <ele>2194.35</ele>
        <time>2019-01-20T11:03:51Z</time>
      </trkpt>
      <trkpt lat="46.00541" lon="6.47074">
        <ele>2196.27</ele>
        <time>2019-01-20T11:04:10Z</time>
      </trkpt>
      <trkpt lat="46.00544" lon="6.47063">
        <ele>2198.67</ele>
        <time>2019-01-20T11:04:26Z</time>
      </trkpt>
      <trkpt lat="46.00547" lon="6.47053">
        <ele>2201.56</ele>
        <time>2019-01-20T11:04:42Z</time>
      </trkpt>
      <trkpt lat="46.00547" lon="6.47046">
        <ele>2203.96</ele>
        <time>2019-01-20T11:04:57Z</time>
      </trkpt>
      <trkpt lat="46.00549" lon="6.47049">
        <ele>2205.88</ele>
        <time>2019-01-20T11:05:13Z</time>
      </trkpt>
      <trkpt lat="46.00553" lon="6.47059">
        <ele>2209.25</ele>
        <time>2019-01-20T11:05:33Z</time>
      </trkpt>
      <trkpt lat="46.00555" lon="6.47064">
        <ele>2210.21</ele>
        <time>2019-01-20T11:05:50Z</time>
      </trkpt>
      <trkpt lat="46.00558" lon="6.47053">
        <ele>2213.09</ele>
        <time>2019-01-20T11:06:05Z</time>
      </trkpt>
      <trkpt lat="46.0056" lon="6.4704">
        <ele>2216.46</ele>
        <time>2019-01-20T11:06:23Z</time>
      </trkpt>
      <trkpt lat="46.0056" lon="6.47039">
        <ele>2216.94</ele>
        <time>2019-01-20T11:06:25Z</time>
      </trkpt>
      <trkpt lat="46.00562" lon="6.47029">
        <ele>2219.34</ele>
        <time>2019-01-20T11:06:40Z</time>
      </trkpt>
      <trkpt lat="46.00562" lon="6.47019">
        <ele>2222.71</ele>
        <time>2019-01-20T11:06:56Z</time>
      </trkpt>
      <trkpt lat="46.00566" lon="6.47021">
        <ele>2224.63</ele>
        <time>2019-01-20T11:07:12Z</time>
      </trkpt>
      <trkpt lat="46.00572" lon="6.47026">
        <ele>2227.51</ele>
        <time>2019-01-20T11:07:29Z</time>
      </trkpt>
      <trkpt lat="46.00577" lon="6.47027">
        <ele>2229.92</ele>
        <time>2019-01-20T11:07:49Z</time>
      </trkpt>
      <trkpt lat="46.00583" lon="6.47016">
        <ele>2232.8</ele>
        <time>2019-01-20T11:08:05Z</time>
      </trkpt>
      <trkpt lat="46.00582" lon="6.47002">
        <ele>2236.16</ele>
        <time>2019-01-20T11:08:23Z</time>
      </trkpt>
      <trkpt lat="46.00583" lon="6.46994">
        <ele>2238.57</ele>
        <time>2019-01-20T11:08:42Z</time>
      </trkpt>
      <trkpt lat="46.00586" lon="6.46998">
        <ele>2240.97</ele>
        <time>2019-01-20T11:08:59Z</time>
      </trkpt>
      <trkpt lat="46.00587" lon="6.46986">
        <ele>2244.33</ele>
        <time>2019-01-20T11:09:15Z</time>
      </trkpt>
      <trkpt lat="46.0059" lon="6.46975">
        <ele>2246.26</ele>
        <time>2019-01-20T11:09:28Z</time>
      </trkpt>
      <trkpt lat="46.00589" lon="6.46962">
        <ele>2249.62</ele>
        <time>2019-01-20T11:09:44Z</time>
      </trkpt>
      <trkpt lat="46.00587" lon="6.4695">
        <ele>2252.99</ele>
        <time>2019-01-20T11:10:00Z</time>
      </trkpt>
      <trkpt lat="46.00586" lon="6.46942">
        <ele>2255.87</ele>
        <time>2019-01-20T11:10:13Z</time>
      </trkpt>
      <trkpt lat="46.0059" lon="6.46944">
        <ele>2257.79</ele>
        <time>2019-01-20T11:10:29Z</time>
      </trkpt>
      <trkpt lat="46.00595" lon="6.46945">
        <ele>2262.12</ele>
        <time>2019-01-20T11:38:39Z</time>
      </trkpt>
      <trkpt lat="46.00594" lon="6.46944">
        <ele>2262.12</ele>
        <time>2019-01-20T11:39:20Z</time>
      </trkpt>
      <trkpt lat="46.00594" lon="6.46944">
        <ele>2261.64</ele>
        <time>2019-01-20T11:40:07Z</time>
      </trkpt>
      <trkpt lat="46.00593" lon="6.46943">
        <ele>2261.16</ele>
        <time>2019-01-20T11:40:41Z</time>
      </trkpt>
      <trkpt lat="46.00592" lon="6.46944">
        <ele>2261.16</ele>
        <time>2019-01-20T11:40:42Z</time>
      </trkpt>
      <trkpt lat="46.00589" lon="6.46944">
        <ele>2259.72</ele>
        <time>2019-01-20T11:40:44Z</time>
      </trkpt>
      <trkpt lat="46.00587" lon="6.46947">
        <ele>2259.72</ele>
        <time>2019-01-20T11:40:45Z</time>
      </trkpt>
      <trkpt lat="46.00587" lon="6.4695">
        <ele>2258.27</ele>
        <time>2019-01-20T11:40:46Z</time>
      </trkpt>
      <trkpt lat="46.00586" lon="6.46955">
        <ele>2259.72</ele>
        <time>2019-01-20T11:40:47Z</time>
      </trkpt>
      <trkpt lat="46.00583" lon="6.46957">
        <ele>2258.27</ele>
        <time>2019-01-20T11:40:48Z</time>
      </trkpt>
      <trkpt lat="46.00578" lon="6.46956">
        <ele>2253.95</ele>
        <time>2019-01-20T11:40:49Z</time>
      </trkpt>
      <trkpt lat="46.00574" lon="6.46957">
        <ele>2253.95</ele>
        <time>2019-01-20T11:40:50Z</time>
      </trkpt>
      <trkpt lat="46.0057" lon="6.46965">
        <ele>2250.58</ele>
        <time>2019-01-20T11:40:52Z</time>
      </trkpt>
      <trkpt lat="46.00568" lon="6.4697">
        <ele>2247.7</ele>
        <time>2019-01-20T11:40:53Z</time>
      </trkpt>
      <trkpt lat="46.00566" lon="6.46975">
        <ele>2244.33</ele>
        <time>2019-01-20T11:40:54Z</time>
      </trkpt>
      <trkpt lat="46.00564" lon="6.46982">
        <ele>2244.33</ele>
        <time>2019-01-20T11:40:55Z</time>
      </trkpt>
      <trkpt lat="46.00561" lon="6.46986">
        <ele>2240.97</ele>
        <time>2019-01-20T11:40:56Z</time>
      </trkpt>
      <trkpt lat="46.00557" lon="6.46985">
        <ele>2237.13</ele>
        <time>2019-01-20T11:40:57Z</time>
      </trkpt>
      <trkpt lat="46.0055" lon="6.46978">
        <ele>2237.61</ele>
        <time>2019-01-20T11:41:06Z</time>
      </trkpt>
      <trkpt lat="46.00547" lon="6.46973">
        <ele>2237.13</ele>
        <time>2019-01-20T11:41:26Z</time>
      </trkpt>
      <trkpt lat="46.00545" lon="6.46979">
        <ele>2234.24</ele>
        <time>2019-01-20T11:41:29Z</time>
      </trkpt>
      <trkpt lat="46.00542" lon="6.46983">
        <ele>2230.4</ele>
        <time>2019-01-20T11:41:33Z</time>
      </trkpt>
      <trkpt lat="46.00542" lon="6.46982">
        <ele>2230.4</ele>
        <time>2019-01-20T11:41:34Z</time>
      </trkpt>
      <trkpt lat="46.00541" lon="6.46981">
        <ele>2229.92</ele>
        <time>2019-01-20T11:41:35Z</time>
      </trkpt>
      <trkpt lat="46.00538" lon="6.46984">
        <ele>2228.95</ele>
        <time>2019-01-20T11:41:37Z</time>
      </trkpt>
      <trkpt lat="46.00538" lon="6.46992">
        <ele>2225.11</ele>
        <time>2019-01-20T11:41:39Z</time>
      </trkpt>
      <trkpt lat="46.0054" lon="6.46998">
        <ele>2223.67</ele>
        <time>2019-01-20T11:41:41Z</time>
      </trkpt>
      <trkpt lat="46.00544" lon="6.4701">
        <ele>2222.22</ele>
        <time>2019-01-20T11:41:45Z</time>
      </trkpt>
      <trkpt lat="46.00551" lon="6.47023">
        <ele>2220.78</ele>
        <time>2019-01-20T11:42:00Z</time>
      </trkpt>
      <trkpt lat="46.00553" lon="6.47025">
        <ele>2220.3</ele>
        <time>2019-01-20T11:42:16Z</time>
      </trkpt>
      <trkpt lat="46.00555" lon="6.47031">
        <ele>2219.34</ele>
        <time>2019-01-20T11:42:20Z</time>
      </trkpt>
      <trkpt lat="46.00555" lon="6.47035">
        <ele>2219.34</ele>
        <time>2019-01-20T11:42:22Z</time>
      </trkpt>
      <trkpt lat="46.00555" lon="6.47031">
        <ele>2216.46</ele>
        <time>2019-01-20T11:42:24Z</time>
      </trkpt>
      <trkpt lat="46.00554" lon="6.47031">
        <ele>2215.98</ele>
        <time>2019-01-20T11:42:26Z</time>
      </trkpt>
      <trkpt lat="46.00551" lon="6.47035">
        <ele>2214.53</ele>
        <time>2019-01-20T11:42:28Z</time>
      </trkpt>
      <trkpt lat="46.00551" lon="6.4704">
        <ele>2212.13</ele>
        <time>2019-01-20T11:42:29Z</time>
      </trkpt>
      <trkpt lat="46.00551" lon="6.47044">
        <ele>2210.69</ele>
        <time>2019-01-20T11:42:30Z</time>
      </trkpt>
      <trkpt lat="46.00553" lon="6.47048">
        <ele>2210.69</ele>
        <time>2019-01-20T11:42:31Z</time>
      </trkpt>
      <trkpt lat="46.00554" lon="6.47052">
        <ele>2209.73</ele>
        <time>2019-01-20T11:42:32Z</time>
      </trkpt>
      <trkpt lat="46.00556" lon="6.47056">
        <ele>2209.25</ele>
        <time>2019-01-20T11:42:41Z</time>
      </trkpt>
      <trkpt lat="46.00556" lon="6.47058">
        <ele>2209.25</ele>
        <time>2019-01-20T11:42:45Z</time>
      </trkpt>
      <trkpt lat="46.00554" lon="6.4706">
        <ele>2209.25</ele>
        <time>2019-01-20T11:42:46Z</time>
      </trkpt>
      <trkpt lat="46.00552" lon="6.47058">
        <ele>2207.32</ele>
        <time>2019-01-20T11:42:47Z</time>
      </trkpt>
      <trkpt lat="46.00547" lon="6.47047">
        <ele>2203.96</ele>
        <time>2019-01-20T11:42:50Z</time>
      </trkpt>
      <trkpt lat="46.00545" lon="6.47042">
        <ele>2203</ele>
        <time>2019-01-20T11:42:52Z</time>
      </trkpt>
      <trkpt lat="46.00542" lon="6.47029">
        <ele>2201.08</ele>
        <time>2019-01-20T11:42:58Z</time>
      </trkpt>
      <trkpt lat="46.00539" lon="6.47024">
        <ele>2201.08</ele>
        <time>2019-01-20T11:43:00Z</time>
      </trkpt>
      <trkpt lat="46.00534" lon="6.47025">
        <ele>2196.75</ele>
        <time>2019-01-20T11:43:03Z</time>
      </trkpt>
      <trkpt lat="46.00532" lon="6.47042">
        <ele>2192.9</ele>
        <time>2019-01-20T11:43:07Z</time>
      </trkpt>
      <trkpt lat="46.00526" lon="6.4704">
        <ele>2189.54</ele>
        <time>2019-01-20T11:43:09Z</time>
      </trkpt>
      <trkpt lat="46.00521" lon="6.4705">
        <ele>2185.21</ele>
        <time>2019-01-20T11:43:11Z</time>
      </trkpt>
      <trkpt lat="46.0052" lon="6.47061">
        <ele>2182.81</ele>
        <time>2019-01-20T11:43:13Z</time>
      </trkpt>
      <trkpt lat="46.00523" lon="6.47063">
        <ele>2183.29</ele>
        <time>2019-01-20T11:43:27Z</time>
      </trkpt>
      <trkpt lat="46.00526" lon="6.47061">
        <ele>2183.29</ele>
        <time>2019-01-20T11:43:56Z</time>
      </trkpt>
      <trkpt lat="46.00531" lon="6.47062">
        <ele>2182.81</ele>
        <time>2019-01-20T11:44:31Z</time>
      </trkpt>
      <trkpt lat="46.00528" lon="6.47064">
        <ele>2182.33</ele>
        <time>2019-01-20T11:44:38Z</time>
      </trkpt>
      <trkpt lat="46.00527" lon="6.47064">
        <ele>2182.33</ele>
        <time>2019-01-20T11:44:39Z</time>
      </trkpt>
      <trkpt lat="46.00521" lon="6.47064">
        <ele>2178.97</ele>
        <time>2019-01-20T11:44:42Z</time>
      </trkpt>
      <trkpt lat="46.00517" lon="6.4707">
        <ele>2177.04</ele>
        <time>2019-01-20T11:44:44Z</time>
      </trkpt>
      <trkpt lat="46.00511" lon="6.47073">
        <ele>2172.24</ele>
        <time>2019-01-20T11:44:46Z</time>
      </trkpt>
      <trkpt lat="46.00504" lon="6.47069">
        <ele>2168.87</ele>
        <time>2019-01-20T11:44:48Z</time>
      </trkpt>
      <trkpt lat="46.00502" lon="6.47072">
        <ele>2165.51</ele>
        <time>2019-01-20T11:44:49Z</time>
      </trkpt>
      <trkpt lat="46.00496" lon="6.47084">
        <ele>2159.74</ele>
        <time>2019-01-20T11:44:52Z</time>
      </trkpt>
      <trkpt lat="46.00489" lon="6.4708">
        <ele>2155.89</ele>
        <time>2019-01-20T11:44:54Z</time>
      </trkpt>
      <trkpt lat="46.00488" lon="6.47089">
        <ele>2151.57</ele>
        <time>2019-01-20T11:44:56Z</time>
      </trkpt>
      <trkpt lat="46.00491" lon="6.47097">
        <ele>2150.13</ele>
        <time>2019-01-20T11:44:59Z</time>
      </trkpt>
      <trkpt lat="46.00489" lon="6.47096">
        <ele>2151.57</ele>
        <time>2019-01-20T11:45:03Z</time>
      </trkpt>
      <trkpt lat="46.00486" lon="6.47092">
        <ele>2150.61</ele>
        <time>2019-01-20T11:45:26Z</time>
      </trkpt>
      <trkpt lat="46.00488" lon="6.47089">
        <ele>2150.61</ele>
        <time>2019-01-20T11:46:01Z</time>
      </trkpt>
      <trkpt lat="46.00485" lon="6.47089">
        <ele>2150.13</ele>
        <time>2019-01-20T11:46:29Z</time>
      </trkpt>
      <trkpt lat="46.00484" lon="6.47091">
        <ele>2150.13</ele>
        <time>2019-01-20T11:47:03Z</time>
      </trkpt>
      <trkpt lat="46.00481" lon="6.47095">
        <ele>2145.8</ele>
        <time>2019-01-20T11:47:08Z</time>
      </trkpt>
      <trkpt lat="46.00475" lon="6.47099">
        <ele>2141.47</ele>
        <time>2019-01-20T11:47:10Z</time>
      </trkpt>
      <trkpt lat="46.00474" lon="6.47103">
        <ele>2141.47</ele>
        <time>2019-01-20T11:47:11Z</time>
      </trkpt>
      <trkpt lat="46.00469" lon="6.47102">
        <ele>2136.67</ele>
        <time>2019-01-20T11:47:13Z</time>
      </trkpt>
      <trkpt lat="46.00461" lon="6.47103">
        <ele>2133.78</ele>
        <time>2019-01-20T11:47:15Z</time>
      </trkpt>
      <trkpt lat="46.00453" lon="6.47103">
        <ele>2128.5</ele>
        <time>2019-01-20T11:47:17Z</time>
      </trkpt>
      <trkpt lat="46.00448" lon="6.47103">
        <ele>2125.13</ele>
        <time>2019-01-20T11:47:18Z</time>
      </trkpt>
      <trkpt lat="46.00436" lon="6.4711">
        <ele>2119.36</ele>
        <time>2019-01-20T11:47:21Z</time>
      </trkpt>
      <trkpt lat="46.00432" lon="6.47116">
        <ele>2113.6</ele>
        <time>2019-01-20T11:47:23Z</time>
      </trkpt>
      <trkpt lat="46.00431" lon="6.47122">
        <ele>2113.6</ele>
        <time>2019-01-20T11:47:24Z</time>
      </trkpt>
      <trkpt lat="46.00425" lon="6.47122">
        <ele>2109.27</ele>
        <time>2019-01-20T11:47:27Z</time>
      </trkpt>
      <trkpt lat="46.00436" lon="6.47121">
        <ele>2110.23</ele>
        <time>2019-01-20T11:47:48Z</time>
      </trkpt>
      <trkpt lat="46.00434" lon="6.47121">
        <ele>2110.23</ele>
        <time>2019-01-20T11:48:22Z</time>
      </trkpt>
      <trkpt lat="46.0043" lon="6.47123">
        <ele>2109.75</ele>
        <time>2019-01-20T11:48:43Z</time>
      </trkpt>
      <trkpt lat="46.00425" lon="6.4713">
        <ele>2106.39</ele>
        <time>2019-01-20T11:48:47Z</time>
      </trkpt>
      <trkpt lat="46.00422" lon="6.47135">
        <ele>2103.02</ele>
        <time>2019-01-20T11:48:49Z</time>
      </trkpt>
      <trkpt lat="46.00414" lon="6.47137">
        <ele>2099.66</ele>
        <time>2019-01-20T11:48:51Z</time>
      </trkpt>
      <trkpt lat="46.00405" lon="6.47142">
        <ele>2094.85</ele>
        <time>2019-01-20T11:48:53Z</time>
      </trkpt>
      <trkpt lat="46.00393" lon="6.47151">
        <ele>2087.64</ele>
        <time>2019-01-20T11:48:56Z</time>
      </trkpt>
      <trkpt lat="46.00383" lon="6.47161">
        <ele>2082.35</ele>
        <time>2019-01-20T11:48:59Z</time>
      </trkpt>
      <trkpt lat="46.0038" lon="6.47169">
        <ele>2080.43</ele>
        <time>2019-01-20T11:49:01Z</time>
      </trkpt>
      <trkpt lat="46.00373" lon="6.47176">
        <ele>2075.62</ele>
        <time>2019-01-20T11:49:03Z</time>
      </trkpt>
      <trkpt lat="46.00371" lon="6.47187">
        <ele>2073.22</ele>
        <time>2019-01-20T11:49:05Z</time>
      </trkpt>
      <trkpt lat="46.00375" lon="6.47197">
        <ele>2071.3</ele>
        <time>2019-01-20T11:49:07Z</time>
      </trkpt>
      <trkpt lat="46.00384" lon="6.47212">
        <ele>2070.34</ele>
        <time>2019-01-20T11:49:11Z</time>
      </trkpt>
      <trkpt lat="46.00389" lon="6.47227">
        <ele>2070.34</ele>
        <time>2019-01-20T11:49:15Z</time>
      </trkpt>
      <trkpt lat="46.00383" lon="6.47243">
        <ele>2067.45</ele>
        <time>2019-01-20T11:49:18Z</time>
      </trkpt>
      <trkpt lat="46.00375" lon="6.47259">
        <ele>2065.05</ele>
        <time>2019-01-20T11:49:21Z</time>
      </trkpt>
      <trkpt lat="46.00369" lon="6.47265">
        <ele>2063.61</ele>
        <time>2019-01-20T11:49:23Z</time>
      </trkpt>
      <trkpt lat="46.00368" lon="6.47267">
        <ele>2065.05</ele>
        <time>2019-01-20T11:49:25Z</time>
      </trkpt>
      <trkpt lat="46.00371" lon="6.47269">
        <ele>2065.05</ele>
        <time>2019-01-20T11:49:45Z</time>
      </trkpt>
      <trkpt lat="46.00369" lon="6.47268">
        <ele>2064.57</ele>
        <time>2019-01-20T11:50:14Z</time>
      </trkpt>
      <trkpt lat="46.00369" lon="6.47269">
        <ele>2063.13</ele>
        <time>2019-01-20T11:50:19Z</time>
      </trkpt>
      <trkpt lat="46.00366" lon="6.47264">
        <ele>2063.13</ele>
        <time>2019-01-20T11:50:44Z</time>
      </trkpt>
      <trkpt lat="46.00368" lon="6.47271">
        <ele>2063.13</ele>
        <time>2019-01-20T11:51:11Z</time>
      </trkpt>
      <trkpt lat="46.00374" lon="6.47273">
        <ele>2063.13</ele>
        <time>2019-01-20T11:51:37Z</time>
      </trkpt>
      <trkpt lat="46.00375" lon="6.47271">
        <ele>2062.65</ele>
        <time>2019-01-20T11:51:59Z</time>
      </trkpt>
      <trkpt lat="46.00372" lon="6.47269">
        <ele>2062.65</ele>
        <time>2019-01-20T11:52:28Z</time>
      </trkpt>
      <trkpt lat="46.00376" lon="6.47275">
        <ele>2062.17</ele>
        <time>2019-01-20T11:52:46Z</time>
      </trkpt>
      <trkpt lat="46.00374" lon="6.47279">
        <ele>2062.17</ele>
        <time>2019-01-20T11:52:49Z</time>
      </trkpt>
      <trkpt lat="46.00368" lon="6.4728">
        <ele>2060.72</ele>
        <time>2019-01-20T11:52:53Z</time>
      </trkpt>
      <trkpt lat="46.00365" lon="6.47279">
        <ele>2060.24</ele>
        <time>2019-01-20T11:53:03Z</time>
      </trkpt>
      <trkpt lat="46.00356" lon="6.47287">
        <ele>2058.32</ele>
        <time>2019-01-20T11:53:07Z</time>
      </trkpt>
      <trkpt lat="46.00348" lon="6.47289">
        <ele>2056.4</ele>
        <time>2019-01-20T11:53:10Z</time>
      </trkpt>
      <trkpt lat="46.00339" lon="6.47297">
        <ele>2053.03</ele>
        <time>2019-01-20T11:53:13Z</time>
      </trkpt>
      <trkpt lat="46.00335" lon="6.47301">
        <ele>2053.03</ele>
        <time>2019-01-20T11:53:14Z</time>
      </trkpt>
      <trkpt lat="46.00321" lon="6.47312">
        <ele>2051.11</ele>
        <time>2019-01-20T11:53:19Z</time>
      </trkpt>
      <trkpt lat="46.00319" lon="6.47329">
        <ele>2048.71</ele>
        <time>2019-01-20T11:53:24Z</time>
      </trkpt>
      <trkpt lat="46.00316" lon="6.47342">
        <ele>2044.86</ele>
        <time>2019-01-20T11:53:27Z</time>
      </trkpt>
      <trkpt lat="46.00309" lon="6.47346">
        <ele>2043.42</ele>
        <time>2019-01-20T11:53:29Z</time>
      </trkpt>
      <trkpt lat="46.00301" lon="6.47348">
        <ele>2039.57</ele>
        <time>2019-01-20T11:53:31Z</time>
      </trkpt>
      <trkpt lat="46.00297" lon="6.47351">
        <ele>2039.57</ele>
        <time>2019-01-20T11:53:32Z</time>
      </trkpt>
      <trkpt lat="46.00291" lon="6.47354">
        <ele>2035.73</ele>
        <time>2019-01-20T11:53:34Z</time>
      </trkpt>
      <trkpt lat="46.00282" lon="6.47358">
        <ele>2031.88</ele>
        <time>2019-01-20T11:53:36Z</time>
      </trkpt>
      <trkpt lat="46.00273" lon="6.47363">
        <ele>2030.44</ele>
        <time>2019-01-20T11:53:38Z</time>
      </trkpt>
      <trkpt lat="46.00264" lon="6.47363">
        <ele>2030.92</ele>
        <time>2019-01-20T11:53:47Z</time>
      </trkpt>
      <trkpt lat="46.00261" lon="6.47355">
        <ele>2031.88</ele>
        <time>2019-01-20T11:54:02Z</time>
      </trkpt>
      <trkpt lat="46.00256" lon="6.47345">
        <ele>2031.88</ele>
        <time>2019-01-20T11:54:14Z</time>
      </trkpt>
      <trkpt lat="46.00253" lon="6.4734">
        <ele>2029.48</ele>
        <time>2019-01-20T11:54:17Z</time>
      </trkpt>
      <trkpt lat="46.0025" lon="6.47343">
        <ele>2029.48</ele>
        <time>2019-01-20T11:54:18Z</time>
      </trkpt>
      <trkpt lat="46.00247" lon="6.47343">
        <ele>2027.08</ele>
        <time>2019-01-20T11:54:19Z</time>
      </trkpt>
      <trkpt lat="46.00243" lon="6.47344">
        <ele>2024.19</ele>
        <time>2019-01-20T11:54:20Z</time>
      </trkpt>
      <trkpt lat="46.00239" lon="6.47346">
        <ele>2022.75</ele>
        <time>2019-01-20T11:54:21Z</time>
      </trkpt>
      <trkpt lat="46.00235" lon="6.47348">
        <ele>2020.83</ele>
        <time>2019-01-20T11:54:22Z</time>
      </trkpt>
      <trkpt lat="46.00231" lon="6.47351">
        <ele>2018.43</ele>
        <time>2019-01-20T11:54:23Z</time>
      </trkpt>
      <trkpt lat="46.00227" lon="6.47356">
        <ele>2017.46</ele>
        <time>2019-01-20T11:54:24Z</time>
      </trkpt>
      <trkpt lat="46.00223" lon="6.47362">
        <ele>2015.06</ele>
        <time>2019-01-20T11:54:25Z</time>
      </trkpt>
      <trkpt lat="46.0022" lon="6.47368">
        <ele>2013.62</ele>
        <time>2019-01-20T11:54:26Z</time>
      </trkpt>
      <trkpt lat="46.00215" lon="6.47372">
        <ele>2010.73</ele>
        <time>2019-01-20T11:54:27Z</time>
      </trkpt>
      <trkpt lat="46.0021" lon="6.47376">
        <ele>2009.29</ele>
        <time>2019-01-20T11:54:28Z</time>
      </trkpt>
      <trkpt lat="46.00205" lon="6.47379">
        <ele>2007.37</ele>
        <time>2019-01-20T11:54:29Z</time>
      </trkpt>
      <trkpt lat="46.002" lon="6.47381">
        <ele>2004.97</ele>
        <time>2019-01-20T11:54:30Z</time>
      </trkpt>
      <trkpt lat="46.00196" lon="6.47383">
        <ele>2004.97</ele>
        <time>2019-01-20T11:54:31Z</time>
      </trkpt>
      <trkpt lat="46.00191" lon="6.47383">
        <ele>2002.56</ele>
        <time>2019-01-20T11:54:32Z</time>
      </trkpt>
      <trkpt lat="46.00187" lon="6.47386">
        <ele>2001.6</ele>
        <time>2019-01-20T11:54:33Z</time>
      </trkpt>
      <trkpt lat="46.00183" lon="6.47389">
        <ele>2000.64</ele>
        <time>2019-01-20T11:54:34Z</time>
      </trkpt>
      <trkpt lat="46.00177" lon="6.47389">
        <ele>1997.76</ele>
        <time>2019-01-20T11:54:35Z</time>
      </trkpt>
      <trkpt lat="46.00172" lon="6.47391">
        <ele>1996.32</ele>
        <time>2019-01-20T11:54:36Z</time>
      </trkpt>
      <trkpt lat="46.00167" lon="6.47395">
        <ele>1994.87</ele>
        <time>2019-01-20T11:54:37Z</time>
      </trkpt>
      <trkpt lat="46.00162" lon="6.47398">
        <ele>1992.47</ele>
        <time>2019-01-20T11:54:38Z</time>
      </trkpt>
      <trkpt lat="46.00158" lon="6.474">
        <ele>1989.59</ele>
        <time>2019-01-20T11:54:39Z</time>
      </trkpt>
      <trkpt lat="46.00155" lon="6.47404">
        <ele>1988.62</ele>
        <time>2019-01-20T11:54:40Z</time>
      </trkpt>
      <trkpt lat="46.00152" lon="6.47407">
        <ele>1986.7</ele>
        <time>2019-01-20T11:54:41Z</time>
      </trkpt>
      <trkpt lat="46.00149" lon="6.47406">
        <ele>1985.26</ele>
        <time>2019-01-20T11:54:42Z</time>
      </trkpt>
      <trkpt lat="46.00147" lon="6.47404">
        <ele>1984.78</ele>
        <time>2019-01-20T11:54:44Z</time>
      </trkpt>
      <trkpt lat="46.0015" lon="6.47403">
        <ele>1984.78</ele>
        <time>2019-01-20T11:55:05Z</time>
      </trkpt>
      <trkpt lat="46.0015" lon="6.47404">
        <ele>1985.74</ele>
        <time>2019-01-20T11:55:10Z</time>
      </trkpt>
      <trkpt lat="46.0015" lon="6.47402">
        <ele>1983.82</ele>
        <time>2019-01-20T11:55:20Z</time>
      </trkpt>
      <trkpt lat="46.0015" lon="6.47402">
        <ele>1985.74</ele>
        <time>2019-01-20T11:55:22Z</time>
      </trkpt>
      <trkpt lat="46.00145" lon="6.47401">
        <ele>1984.3</ele>
        <time>2019-01-20T11:55:57Z</time>
      </trkpt>
      <trkpt lat="46.00143" lon="6.47404">
        <ele>1982.86</ele>
        <time>2019-01-20T11:55:58Z</time>
      </trkpt>
      <trkpt lat="46.0014" lon="6.47407">
        <ele>1981.9</ele>
        <time>2019-01-20T11:55:59Z</time>
      </trkpt>
      <trkpt lat="46.00137" lon="6.47408">
        <ele>1979.97</ele>
        <time>2019-01-20T11:56:00Z</time>
      </trkpt>
      <trkpt lat="46.00133" lon="6.47412">
        <ele>1979.01</ele>
        <time>2019-01-20T11:56:01Z</time>
      </trkpt>
      <trkpt lat="46.0013" lon="6.47415">
        <ele>1976.61</ele>
        <time>2019-01-20T11:56:02Z</time>
      </trkpt>
      <trkpt lat="46.00124" lon="6.47423">
        <ele>1972.76</ele>
        <time>2019-01-20T11:56:04Z</time>
      </trkpt>
      <trkpt lat="46.00121" lon="6.47427">
        <ele>1972.28</ele>
        <time>2019-01-20T11:56:05Z</time>
      </trkpt>
      <trkpt lat="46.00118" lon="6.47428">
        <ele>1969.4</ele>
        <time>2019-01-20T11:56:06Z</time>
      </trkpt>
      <trkpt lat="46.00108" lon="6.47434">
        <ele>1964.11</ele>
        <time>2019-01-20T11:56:09Z</time>
      </trkpt>
      <trkpt lat="46.00107" lon="6.47439">
        <ele>1964.11</ele>
        <time>2019-01-20T11:56:10Z</time>
      </trkpt>
      <trkpt lat="46.00105" lon="6.47441">
        <ele>1960.75</ele>
        <time>2019-01-20T11:56:11Z</time>
      </trkpt>
      <trkpt lat="46.00103" lon="6.47439">
        <ele>1958.82</ele>
        <time>2019-01-20T11:56:13Z</time>
      </trkpt>
      <trkpt lat="46.00102" lon="6.47436">
        <ele>1957.86</ele>
        <time>2019-01-20T11:56:15Z</time>
      </trkpt>
      <trkpt lat="46.00094" lon="6.47411">
        <ele>1954.02</ele>
        <time>2019-01-20T11:56:22Z</time>
      </trkpt>
      <trkpt lat="46.00092" lon="6.47408">
        <ele>1954.98</ele>
        <time>2019-01-20T11:56:23Z</time>
      </trkpt>
      <trkpt lat="46.00089" lon="6.47408">
        <ele>1954.98</ele>
        <time>2019-01-20T11:56:24Z</time>
      </trkpt>
      <trkpt lat="46.00087" lon="6.47407">
        <ele>1954.98</ele>
        <time>2019-01-20T11:56:33Z</time>
      </trkpt>
      <trkpt lat="46.00085" lon="6.47406">
        <ele>1954.98</ele>
        <time>2019-01-20T11:56:34Z</time>
      </trkpt>
      <trkpt lat="46.0008" lon="6.47398">
        <ele>1953.54</ele>
        <time>2019-01-20T11:56:38Z</time>
      </trkpt>
      <trkpt lat="46.00076" lon="6.47393">
        <ele>1952.57</ele>
        <time>2019-01-20T11:56:42Z</time>
      </trkpt>
      <trkpt lat="46.00074" lon="6.47396">
        <ele>1951.13</ele>
        <time>2019-01-20T11:56:43Z</time>
      </trkpt>
      <trkpt lat="46.00073" lon="6.47399">
        <ele>1951.13</ele>
        <time>2019-01-20T11:56:44Z</time>
      </trkpt>
      <trkpt lat="46.00069" lon="6.47405">
        <ele>1945.85</ele>
        <time>2019-01-20T11:56:46Z</time>
      </trkpt>
      <trkpt lat="46.00066" lon="6.47408">
        <ele>1944.4</ele>
        <time>2019-01-20T11:56:47Z</time>
      </trkpt>
      <trkpt lat="46.00066" lon="6.47414">
        <ele>1942.96</ele>
        <time>2019-01-20T11:56:48Z</time>
      </trkpt>
      <trkpt lat="46.00067" lon="6.4742">
        <ele>1941.52</ele>
        <time>2019-01-20T11:56:49Z</time>
      </trkpt>
      <trkpt lat="46.00068" lon="6.47425">
        <ele>1941.52</ele>
        <time>2019-01-20T11:56:50Z</time>
      </trkpt>
      <trkpt lat="46.00069" lon="6.4743">
        <ele>1941.52</ele>
        <time>2019-01-20T11:56:51Z</time>
      </trkpt>
      <trkpt lat="46.00068" lon="6.47436">
        <ele>1938.64</ele>
        <time>2019-01-20T11:56:52Z</time>
      </trkpt>
      <trkpt lat="46.00067" lon="6.47438">
        <ele>1937.67</ele>
        <time>2019-01-20T11:56:53Z</time>
      </trkpt>
      <trkpt lat="46.00065" lon="6.47436">
        <ele>1935.75</ele>
        <time>2019-01-20T11:56:54Z</time>
      </trkpt>
      <trkpt lat="46.00063" lon="6.47432">
        <ele>1934.79</ele>
        <time>2019-01-20T11:56:55Z</time>
      </trkpt>
      <trkpt lat="46.0006" lon="6.47427">
        <ele>1934.79</ele>
        <time>2019-01-20T11:56:56Z</time>
      </trkpt>
      <trkpt lat="46.00058" lon="6.47423">
        <ele>1934.31</ele>
        <time>2019-01-20T11:56:57Z</time>
      </trkpt>
      <trkpt lat="46.00056" lon="6.47419">
        <ele>1934.31</ele>
        <time>2019-01-20T11:56:58Z</time>
      </trkpt>
      <trkpt lat="46.00054" lon="6.47416">
        <ele>1932.87</ele>
        <time>2019-01-20T11:56:59Z</time>
      </trkpt>
      <trkpt lat="46.00053" lon="6.47413">
        <ele>1933.35</ele>
        <time>2019-01-20T11:57:00Z</time>
      </trkpt>
      <trkpt lat="46.00051" lon="6.4741">
        <ele>1932.87</ele>
        <time>2019-01-20T11:57:01Z</time>
      </trkpt>
      <trkpt lat="46.00049" lon="6.47405">
        <ele>1931.91</ele>
        <time>2019-01-20T11:57:03Z</time>
      </trkpt>
      <trkpt lat="46.00045" lon="6.47409">
        <ele>1930.95</ele>
        <time>2019-01-20T11:57:05Z</time>
      </trkpt>
      <trkpt lat="46.00041" lon="6.47411">
        <ele>1927.58</ele>
        <time>2019-01-20T11:57:07Z</time>
      </trkpt>
      <trkpt lat="46.00037" lon="6.47412">
        <ele>1924.22</ele>
        <time>2019-01-20T11:57:08Z</time>
      </trkpt>
      <trkpt lat="46.00035" lon="6.47416">
        <ele>1923.74</ele>
        <time>2019-01-20T11:57:09Z</time>
      </trkpt>
      <trkpt lat="46.00033" lon="6.47418">
        <ele>1923.25</ele>
        <time>2019-01-20T11:57:10Z</time>
      </trkpt>
      <trkpt lat="46.0003" lon="6.47419">
        <ele>1918.45</ele>
        <time>2019-01-20T11:57:11Z</time>
      </trkpt>
      <trkpt lat="46.00027" lon="6.47422">
        <ele>1916.53</ele>
        <time>2019-01-20T11:57:12Z</time>
      </trkpt>
      <trkpt lat="46.00026" lon="6.47428">
        <ele>1916.04</ele>
        <time>2019-01-20T11:57:13Z</time>
      </trkpt>
      <trkpt lat="46.00023" lon="6.47432">
        <ele>1913.16</ele>
        <time>2019-01-20T11:57:14Z</time>
      </trkpt>
      <trkpt lat="46.0002" lon="6.47433">
        <ele>1910.76</ele>
        <time>2019-01-20T11:57:15Z</time>
      </trkpt>
      <trkpt lat="46.00015" lon="6.47433">
        <ele>1910.76</ele>
        <time>2019-01-20T11:57:16Z</time>
      </trkpt>
      <trkpt lat="46.00009" lon="6.47432">
        <ele>1912.2</ele>
        <time>2019-01-20T11:57:22Z</time>
      </trkpt>
      <trkpt lat="46.00005" lon="6.4743">
        <ele>1912.2</ele>
        <time>2019-01-20T11:57:43Z</time>
      </trkpt>
      <trkpt lat="46.00004" lon="6.47437">
        <ele>1909.8</ele>
        <time>2019-01-20T11:57:46Z</time>
      </trkpt>
      <trkpt lat="46" lon="6.4744">
        <ele>1907.39</ele>
        <time>2019-01-20T11:57:49Z</time>
      </trkpt>
      <trkpt lat="46" lon="6.47437">
        <ele>1907.39</ele>
        <time>2019-01-20T11:58:09Z</time>
      </trkpt>
      <trkpt lat="45.99999" lon="6.47435">
        <ele>1907.39</ele>
        <time>2019-01-20T11:58:20Z</time>
      </trkpt>
      <trkpt lat="45.99995" lon="6.47444">
        <ele>1904.51</ele>
        <time>2019-01-20T11:58:24Z</time>
      </trkpt>
      <trkpt lat="45.9999" lon="6.47447">
        <ele>1898.74</ele>
        <time>2019-01-20T11:58:26Z</time>
      </trkpt>
      <trkpt lat="45.99989" lon="6.47456">
        <ele>1895.86</ele>
        <time>2019-01-20T11:58:28Z</time>
      </trkpt>
      <trkpt lat="45.99986" lon="6.47457">
        <ele>1892.49</ele>
        <time>2019-01-20T11:58:30Z</time>
      </trkpt>
      <trkpt lat="45.99989" lon="6.4746">
        <ele>1892.01</ele>
        <time>2019-01-20T11:58:47Z</time>
      </trkpt>
      <trkpt lat="45.99979" lon="6.47453">
        <ele>1890.57</ele>
        <time>2019-01-20T11:59:14Z</time>
      </trkpt>
      <trkpt lat="45.99978" lon="6.47449">
        <ele>1890.09</ele>
        <time>2019-01-20T11:59:21Z</time>
      </trkpt>
      <trkpt lat="45.99967" lon="6.47431">
        <ele>1887.69</ele>
        <time>2019-01-20T11:59:30Z</time>
      </trkpt>
      <trkpt lat="45.99964" lon="6.47441">
        <ele>1883.84</ele>
        <time>2019-01-20T11:59:34Z</time>
      </trkpt>
      <trkpt lat="45.99959" lon="6.47444">
        <ele>1879.51</ele>
        <time>2019-01-20T11:59:37Z</time>
      </trkpt>
      <trkpt lat="45.99959" lon="6.47453">
        <ele>1875.19</ele>
        <time>2019-01-20T11:59:39Z</time>
      </trkpt>
      <trkpt lat="45.99955" lon="6.47455">
        <ele>1870.38</ele>
        <time>2019-01-20T11:59:41Z</time>
      </trkpt>
      <trkpt lat="45.9995" lon="6.47457">
        <ele>1865.58</ele>
        <time>2019-01-20T11:59:44Z</time>
      </trkpt>
      <trkpt lat="45.99954" lon="6.47464">
        <ele>1864.13</ele>
        <time>2019-01-20T11:59:46Z</time>
      </trkpt>
      <trkpt lat="45.99949" lon="6.47465">
        <ele>1860.29</ele>
        <time>2019-01-20T11:59:49Z</time>
      </trkpt>
      <trkpt lat="45.99941" lon="6.47468">
        <ele>1856.44</ele>
        <time>2019-01-20T11:59:52Z</time>
      </trkpt>
      <trkpt lat="45.99936" lon="6.47476">
        <ele>1851.16</ele>
        <time>2019-01-20T11:59:55Z</time>
      </trkpt>
      <trkpt lat="45.99937" lon="6.47485">
        <ele>1849.23</ele>
        <time>2019-01-20T11:59:59Z</time>
      </trkpt>
      <trkpt lat="45.9994" lon="6.47483">
        <ele>1848.75</ele>
        <time>2019-01-20T12:00:21Z</time>
      </trkpt>
      <trkpt lat="45.99938" lon="6.47489">
        <ele>1849.23</ele>
        <time>2019-01-20T12:00:53Z</time>
      </trkpt>
      <trkpt lat="45.99935" lon="6.4749">
        <ele>1846.35</ele>
        <time>2019-01-20T12:00:54Z</time>
      </trkpt>
      <trkpt lat="45.99932" lon="6.4749">
        <ele>1845.87</ele>
        <time>2019-01-20T12:00:55Z</time>
      </trkpt>
      <trkpt lat="45.99931" lon="6.47494">
        <ele>1844.43</ele>
        <time>2019-01-20T12:00:56Z</time>
      </trkpt>
      <trkpt lat="45.99932" lon="6.47498">
        <ele>1844.43</ele>
        <time>2019-01-20T12:00:57Z</time>
      </trkpt>
      <trkpt lat="45.99933" lon="6.47502">
        <ele>1842.98</ele>
        <time>2019-01-20T12:00:58Z</time>
      </trkpt>
      <trkpt lat="45.9993" lon="6.47505">
        <ele>1840.1</ele>
        <time>2019-01-20T12:00:59Z</time>
      </trkpt>
      <trkpt lat="45.99926" lon="6.47508">
        <ele>1838.66</ele>
        <time>2019-01-20T12:01:00Z</time>
      </trkpt>
      <trkpt lat="45.99927" lon="6.47514">
        <ele>1837.22</ele>
        <time>2019-01-20T12:01:01Z</time>
      </trkpt>
      <trkpt lat="45.99928" lon="6.47518">
        <ele>1835.29</ele>
        <time>2019-01-20T12:01:02Z</time>
      </trkpt>
      <trkpt lat="45.99927" lon="6.47523">
        <ele>1835.29</ele>
        <time>2019-01-20T12:01:03Z</time>
      </trkpt>
      <trkpt lat="45.99926" lon="6.47528">
        <ele>1834.81</ele>
        <time>2019-01-20T12:01:04Z</time>
      </trkpt>
      <trkpt lat="45.99925" lon="6.47531">
        <ele>1833.37</ele>
        <time>2019-01-20T12:01:05Z</time>
      </trkpt>
      <trkpt lat="45.99924" lon="6.47534">
        <ele>1833.37</ele>
        <time>2019-01-20T12:01:06Z</time>
      </trkpt>
      <trkpt lat="45.99922" lon="6.47534">
        <ele>1833.37</ele>
        <time>2019-01-20T12:01:07Z</time>
      </trkpt>
      <trkpt lat="45.9992" lon="6.4753">
        <ele>1830.97</ele>
        <time>2019-01-20T12:01:08Z</time>
      </trkpt>
      <trkpt lat="45.99918" lon="6.47524">
        <ele>1829.53</ele>
        <time>2019-01-20T12:01:09Z</time>
      </trkpt>
      <trkpt lat="45.99916" lon="6.47518">
        <ele>1828.08</ele>
        <time>2019-01-20T12:01:10Z</time>
      </trkpt>
      <trkpt lat="45.99914" lon="6.47515">
        <ele>1828.08</ele>
        <time>2019-01-20T12:01:11Z</time>
      </trkpt>
      <trkpt lat="45.99912" lon="6.47513">
        <ele>1828.08</ele>
        <time>2019-01-20T12:01:12Z</time>
      </trkpt>
      <trkpt lat="45.9991" lon="6.47512">
        <ele>1827.6</ele>
        <time>2019-01-20T12:01:14Z</time>
      </trkpt>
      <trkpt lat="45.99908" lon="6.47512">
        <ele>1828.08</ele>
        <time>2019-01-20T12:01:15Z</time>
      </trkpt>
      <trkpt lat="45.99892" lon="6.47505">
        <ele>1824.72</ele>
        <time>2019-01-20T12:01:21Z</time>
      </trkpt>
      <trkpt lat="45.99881" lon="6.47495">
        <ele>1823.28</ele>
        <time>2019-01-20T12:01:25Z</time>
      </trkpt>
      <trkpt lat="45.99866" lon="6.47488">
        <ele>1820.87</ele>
        <time>2019-01-20T12:01:30Z</time>
      </trkpt>
      <trkpt lat="45.99867" lon="6.47508">
        <ele>1818.47</ele>
        <time>2019-01-20T12:01:34Z</time>
      </trkpt>
      <trkpt lat="45.99864" lon="6.47512">
        <ele>1815.11</ele>
        <time>2019-01-20T12:01:36Z</time>
      </trkpt>
      <trkpt lat="45.99859" lon="6.47513">
        <ele>1815.11</ele>
        <time>2019-01-20T12:01:37Z</time>
      </trkpt>
      <trkpt lat="45.99856" lon="6.47521">
        <ele>1813.18</ele>
        <time>2019-01-20T12:01:38Z</time>
      </trkpt>
      <trkpt lat="45.99852" lon="6.47538">
        <ele>1809.34</ele>
        <time>2019-01-20T12:01:41Z</time>
      </trkpt>
      <trkpt lat="45.9985" lon="6.47541">
        <ele>1809.34</ele>
        <time>2019-01-20T12:01:42Z</time>
      </trkpt>
      <trkpt lat="45.99843" lon="6.4755">
        <ele>1805.97</ele>
        <time>2019-01-20T12:01:45Z</time>
      </trkpt>
      <trkpt lat="45.99833" lon="6.47551">
        <ele>1805.97</ele>
        <time>2019-01-20T12:01:57Z</time>
      </trkpt>
      <trkpt lat="45.99834" lon="6.47549">
        <ele>1806.45</ele>
        <time>2019-01-20T12:02:24Z</time>
      </trkpt>
      <trkpt lat="45.99835" lon="6.47544">
        <ele>1805.97</ele>
        <time>2019-01-20T12:02:49Z</time>
      </trkpt>
      <trkpt lat="45.99833" lon="6.47546">
        <ele>1805.97</ele>
        <time>2019-01-20T12:03:09Z</time>
      </trkpt>
      <trkpt lat="45.99833" lon="6.47552">
        <ele>1803.57</ele>
        <time>2019-01-20T12:03:14Z</time>
      </trkpt>
      <trkpt lat="45.99835" lon="6.47552">
        <ele>1802.61</ele>
        <time>2019-01-20T12:03:17Z</time>
      </trkpt>
      <trkpt lat="45.99833" lon="6.47559">
        <ele>1801.65</ele>
        <time>2019-01-20T12:03:20Z</time>
      </trkpt>
      <trkpt lat="45.99832" lon="6.4756">
        <ele>1801.65</ele>
        <time>2019-01-20T12:03:21Z</time>
      </trkpt>
      <trkpt lat="45.99833" lon="6.4756">
        <ele>1801.65</ele>
        <time>2019-01-20T12:03:22Z</time>
      </trkpt>
      <trkpt lat="45.99839" lon="6.47565">
        <ele>1798.76</ele>
        <time>2019-01-20T12:03:27Z</time>
      </trkpt>
      <trkpt lat="45.99837" lon="6.47566">
        <ele>1795.88</ele>
        <time>2019-01-20T12:03:31Z</time>
      </trkpt>
      <trkpt lat="45.9984" lon="6.47573">
        <ele>1792.52</ele>
        <time>2019-01-20T12:03:34Z</time>
      </trkpt>
      <trkpt lat="45.99842" lon="6.47575">
        <ele>1792.03</ele>
        <time>2019-01-20T12:03:35Z</time>
      </trkpt>
      <trkpt lat="45.99841" lon="6.47577">
        <ele>1790.11</ele>
        <time>2019-01-20T12:03:36Z</time>
      </trkpt>
      <trkpt lat="45.99837" lon="6.47583">
        <ele>1788.67</ele>
        <time>2019-01-20T12:03:38Z</time>
      </trkpt>
      <trkpt lat="45.99834" lon="6.47585">
        <ele>1785.79</ele>
        <time>2019-01-20T12:03:40Z</time>
      </trkpt>
      <trkpt lat="45.99834" lon="6.47582">
        <ele>1785.79</ele>
        <time>2019-01-20T12:04:02Z</time>
      </trkpt>
      <trkpt lat="45.99832" lon="6.47583">
        <ele>1785.31</ele>
        <time>2019-01-20T12:04:14Z</time>
      </trkpt>
      <trkpt lat="45.99835" lon="6.47593">
        <ele>1780.98</ele>
        <time>2019-01-20T12:04:18Z</time>
      </trkpt>
      <trkpt lat="45.99834" lon="6.47594">
        <ele>1779.54</ele>
        <time>2019-01-20T12:04:25Z</time>
      </trkpt>
      <trkpt lat="45.99831" lon="6.47592">
        <ele>1779.06</ele>
        <time>2019-01-20T12:04:46Z</time>
      </trkpt>
      <trkpt lat="45.99831" lon="6.47593">
        <ele>1778.58</ele>
        <time>2019-01-20T12:04:51Z</time>
      </trkpt>
      <trkpt lat="45.99834" lon="6.47601">
        <ele>1776.65</ele>
        <time>2019-01-20T12:04:54Z</time>
      </trkpt>
      <trkpt lat="45.99834" lon="6.47605">
        <ele>1774.25</ele>
        <time>2019-01-20T12:04:58Z</time>
      </trkpt>
      <trkpt lat="45.99833" lon="6.47606">
        <ele>1774.25</ele>
        <time>2019-01-20T12:05:20Z</time>
      </trkpt>
      <trkpt lat="45.99829" lon="6.47604">
        <ele>1771.85</ele>
        <time>2019-01-20T12:05:24Z</time>
      </trkpt>
      <trkpt lat="45.99826" lon="6.47604">
        <ele>1770.89</ele>
        <time>2019-01-20T12:05:29Z</time>
      </trkpt>
      <trkpt lat="45.99826" lon="6.4761">
        <ele>1767.52</ele>
        <time>2019-01-20T12:05:32Z</time>
      </trkpt>
      <trkpt lat="45.99824" lon="6.47611">
        <ele>1766.56</ele>
        <time>2019-01-20T12:05:34Z</time>
      </trkpt>
      <trkpt lat="45.99822" lon="6.47611">
        <ele>1765.12</ele>
        <time>2019-01-20T12:05:35Z</time>
      </trkpt>
      <trkpt lat="45.9982" lon="6.4761">
        <ele>1764.16</ele>
        <time>2019-01-20T12:05:37Z</time>
      </trkpt>
      <trkpt lat="45.9982" lon="6.47613">
        <ele>1763.2</ele>
        <time>2019-01-20T12:05:39Z</time>
      </trkpt>
      <trkpt lat="45.99821" lon="6.47616">
        <ele>1762.23</ele>
        <time>2019-01-20T12:05:40Z</time>
      </trkpt>
      <trkpt lat="45.99822" lon="6.47619">
        <ele>1759.83</ele>
        <time>2019-01-20T12:05:41Z</time>
      </trkpt>
      <trkpt lat="45.99824" lon="6.47621">
        <ele>1759.83</ele>
        <time>2019-01-20T12:05:42Z</time>
      </trkpt>
      <trkpt lat="45.99823" lon="6.47621">
        <ele>1758.87</ele>
        <time>2019-01-20T12:05:48Z</time>
      </trkpt>
      <trkpt lat="45.9982" lon="6.47622">
        <ele>1757.43</ele>
        <time>2019-01-20T12:05:49Z</time>
      </trkpt>
      <trkpt lat="45.99818" lon="6.47622">
        <ele>1755.5</ele>
        <time>2019-01-20T12:05:50Z</time>
      </trkpt>
      <trkpt lat="45.99814" lon="6.47621">
        <ele>1755.5</ele>
        <time>2019-01-20T12:05:51Z</time>
      </trkpt>
      <trkpt lat="45.99811" lon="6.4762">
        <ele>1754.06</ele>
        <time>2019-01-20T12:05:52Z</time>
      </trkpt>
      <trkpt lat="45.99809" lon="6.4762">
        <ele>1754.06</ele>
        <time>2019-01-20T12:05:53Z</time>
      </trkpt>
      <trkpt lat="45.99786" lon="6.47619">
        <ele>1750.7</ele>
        <time>2019-01-20T12:06:01Z</time>
      </trkpt>
      <trkpt lat="45.99767" lon="6.47619">
        <ele>1747.81</ele>
        <time>2019-01-20T12:06:09Z</time>
      </trkpt>
      <trkpt lat="45.9976" lon="6.47618">
        <ele>1745.89</ele>
        <time>2019-01-20T12:06:11Z</time>
      </trkpt>
      <trkpt lat="45.99737" lon="6.47617">
        <ele>1743.49</ele>
        <time>2019-01-20T12:06:20Z</time>
      </trkpt>
      <trkpt lat="45.99723" lon="6.47619">
        <ele>1740.6</ele>
        <time>2019-01-20T12:06:24Z</time>
      </trkpt>
      <trkpt lat="45.99715" lon="6.47621">
        <ele>1737.72</ele>
        <time>2019-01-20T12:06:27Z</time>
      </trkpt>
      <trkpt lat="45.99701" lon="6.47626">
        <ele>1732.91</ele>
        <time>2019-01-20T12:06:31Z</time>
      </trkpt>
      <trkpt lat="45.99693" lon="6.47628">
        <ele>1731.95</ele>
        <time>2019-01-20T12:06:38Z</time>
      </trkpt>
      <trkpt lat="45.99692" lon="6.4763">
        <ele>1731.95</ele>
        <time>2019-01-20T12:06:54Z</time>
      </trkpt>
      <trkpt lat="45.99692" lon="6.47629">
        <ele>1731.95</ele>
        <time>2019-01-20T12:07:21Z</time>
      </trkpt>
      <trkpt lat="45.99694" lon="6.4763">
        <ele>1731.95</ele>
        <time>2019-01-20T12:08:00Z</time>
      </trkpt>
      <trkpt lat="45.99689" lon="6.47629">
        <ele>1731.95</ele>
        <time>2019-01-20T12:08:26Z</time>
      </trkpt>
      <trkpt lat="45.99684" lon="6.47626">
        <ele>1730.99</ele>
        <time>2019-01-20T12:08:29Z</time>
      </trkpt>
      <trkpt lat="45.99665" lon="6.47615">
        <ele>1728.11</ele>
        <time>2019-01-20T12:08:35Z</time>
      </trkpt>
      <trkpt lat="45.99661" lon="6.47612">
        <ele>1727.15</ele>
        <time>2019-01-20T12:08:36Z</time>
      </trkpt>
      <trkpt lat="45.99657" lon="6.47608">
        <ele>1726.18</ele>
        <time>2019-01-20T12:08:37Z</time>
      </trkpt>
      <trkpt lat="45.99652" lon="6.47605">
        <ele>1725.22</ele>
        <time>2019-01-20T12:08:38Z</time>
      </trkpt>
      <trkpt lat="45.99648" lon="6.47602">
        <ele>1724.26</ele>
        <time>2019-01-20T12:08:39Z</time>
      </trkpt>
      <trkpt lat="45.99643" lon="6.476">
        <ele>1724.26</ele>
        <time>2019-01-20T12:08:40Z</time>
      </trkpt>
      <trkpt lat="45.9964" lon="6.47597">
        <ele>1723.3</ele>
        <time>2019-01-20T12:08:41Z</time>
      </trkpt>
      <trkpt lat="45.99637" lon="6.47593">
        <ele>1723.78</ele>
        <time>2019-01-20T12:08:42Z</time>
      </trkpt>
      <trkpt lat="45.99635" lon="6.47588">
        <ele>1722.82</ele>
        <time>2019-01-20T12:08:43Z</time>
      </trkpt>
      <trkpt lat="45.99633" lon="6.47584">
        <ele>1721.86</ele>
        <time>2019-01-20T12:08:44Z</time>
      </trkpt>
      <trkpt lat="45.99631" lon="6.47579">
        <ele>1721.86</ele>
        <time>2019-01-20T12:08:45Z</time>
      </trkpt>
      <trkpt lat="45.99624" lon="6.47561">
        <ele>1719.94</ele>
        <time>2019-01-20T12:08:49Z</time>
      </trkpt>
      <trkpt lat="45.99614" lon="6.47544">
        <ele>1720.42</ele>
        <time>2019-01-20T12:08:54Z</time>
      </trkpt>
      <trkpt lat="45.99609" lon="6.47539">
        <ele>1720.9</ele>
        <time>2019-01-20T12:09:04Z</time>
      </trkpt>
      <trkpt lat="45.99604" lon="6.47539">
        <ele>1722.82</ele>
        <time>2019-01-20T12:09:19Z</time>
      </trkpt>
      <trkpt lat="45.99601" lon="6.47541">
        <ele>1722.34</ele>
        <time>2019-01-20T12:09:34Z</time>
      </trkpt>
      <trkpt lat="45.99597" lon="6.47543">
        <ele>1724.74</ele>
        <time>2019-01-20T12:09:47Z</time>
      </trkpt>
      <trkpt lat="45.99597" lon="6.47544">
        <ele>1723.78</ele>
        <time>2019-01-20T12:09:54Z</time>
      </trkpt>
      <trkpt lat="45.99596" lon="6.47544">
        <ele>1725.22</ele>
        <time>2019-01-20T12:09:58Z</time>
      </trkpt>
      <trkpt lat="45.99594" lon="6.47544">
        <ele>1726.67</ele>
        <time>2019-01-20T12:10:11Z</time>
      </trkpt>
      <trkpt lat="45.9959" lon="6.47552">
        <ele>1727.15</ele>
        <time>2019-01-20T12:10:27Z</time>
      </trkpt>
      <trkpt lat="45.99587" lon="6.47558">
        <ele>1728.11</ele>
        <time>2019-01-20T12:10:38Z</time>
      </trkpt>
      <trkpt lat="45.99582" lon="6.47557">
        <ele>1726.18</ele>
        <time>2019-01-20T12:10:41Z</time>
      </trkpt>
      <trkpt lat="45.99558" lon="6.4756">
        <ele>1725.22</ele>
        <time>2019-01-20T12:10:52Z</time>
      </trkpt>
      <trkpt lat="45.99542" lon="6.47564">
        <ele>1724.74</ele>
        <time>2019-01-20T12:11:04Z</time>
      </trkpt>
      <trkpt lat="45.99526" lon="6.47567">
        <ele>1723.78</ele>
        <time>2019-01-20T12:11:16Z</time>
      </trkpt>
      <trkpt lat="45.99527" lon="6.47565">
        <ele>1723.78</ele>
        <time>2019-01-20T12:11:38Z</time>
      </trkpt>
      <trkpt lat="45.99512" lon="6.47556">
        <ele>1720.42</ele>
        <time>2019-01-20T12:11:51Z</time>
      </trkpt>
      <trkpt lat="45.99504" lon="6.47549">
        <ele>1720.42</ele>
        <time>2019-01-20T12:11:56Z</time>
      </trkpt>
      <trkpt lat="45.99501" lon="6.47545">
        <ele>1719.94</ele>
        <time>2019-01-20T12:12:07Z</time>
      </trkpt>
      <trkpt lat="45.99501" lon="6.47544">
        <ele>1719.94</ele>
        <time>2019-01-20T12:12:12Z</time>
      </trkpt>
      <trkpt lat="45.99498" lon="6.4756">
        <ele>1715.13</ele>
        <time>2019-01-20T12:12:18Z</time>
      </trkpt>
      <trkpt lat="45.99492" lon="6.47569">
        <ele>1711.76</ele>
        <time>2019-01-20T12:12:20Z</time>
      </trkpt>
      <trkpt lat="45.99484" lon="6.47574">
        <ele>1706.48</ele>
        <time>2019-01-20T12:12:22Z</time>
      </trkpt>
      <trkpt lat="45.99471" lon="6.47585">
        <ele>1701.19</ele>
        <time>2019-01-20T12:12:25Z</time>
      </trkpt>
      <trkpt lat="45.99466" lon="6.47584">
        <ele>1701.67</ele>
        <time>2019-01-20T12:12:27Z</time>
      </trkpt>
      <trkpt lat="45.99458" lon="6.47583">
        <ele>1699.75</ele>
        <time>2019-01-20T12:12:29Z</time>
      </trkpt>
      <trkpt lat="45.99452" lon="6.47577">
        <ele>1697.34</ele>
        <time>2019-01-20T12:12:32Z</time>
      </trkpt>
      <trkpt lat="45.99452" lon="6.47576">
        <ele>1698.31</ele>
        <time>2019-01-20T12:12:35Z</time>
      </trkpt>
      <trkpt lat="45.99446" lon="6.47589">
        <ele>1695.42</ele>
        <time>2019-01-20T12:12:39Z</time>
      </trkpt>
      <trkpt lat="45.99437" lon="6.4759">
        <ele>1691.58</ele>
        <time>2019-01-20T12:12:41Z</time>
      </trkpt>
      <trkpt lat="45.99414" lon="6.47583">
        <ele>1686.29</ele>
        <time>2019-01-20T12:12:46Z</time>
      </trkpt>
      <trkpt lat="45.99412" lon="6.47582">
        <ele>1686.29</ele>
        <time>2019-01-20T12:12:47Z</time>
      </trkpt>
      <trkpt lat="45.99411" lon="6.47579">
        <ele>1686.77</ele>
        <time>2019-01-20T12:12:57Z</time>
      </trkpt>
      <trkpt lat="45.99411" lon="6.47578">
        <ele>1688.21</ele>
        <time>2019-01-20T12:13:00Z</time>
      </trkpt>
      <trkpt lat="45.99411" lon="6.47578">
        <ele>1686.77</ele>
        <time>2019-01-20T12:13:02Z</time>
      </trkpt>
      <trkpt lat="45.99411" lon="6.47577">
        <ele>1688.21</ele>
        <time>2019-01-20T12:13:06Z</time>
      </trkpt>
      <trkpt lat="45.99412" lon="6.47576">
        <ele>1686.77</ele>
        <time>2019-01-20T12:13:23Z</time>
      </trkpt>
      <trkpt lat="45.99407" lon="6.47561">
        <ele>1682.93</ele>
        <time>2019-01-20T12:13:28Z</time>
      </trkpt>
      <trkpt lat="45.99394" lon="6.47554">
        <ele>1677.16</ele>
        <time>2019-01-20T12:13:31Z</time>
      </trkpt>
      <trkpt lat="45.99392" lon="6.47548">
        <ele>1677.16</ele>
        <time>2019-01-20T12:13:32Z</time>
      </trkpt>
      <trkpt lat="45.99376" lon="6.47538">
        <ele>1673.79</ele>
        <time>2019-01-20T12:13:36Z</time>
      </trkpt>
      <trkpt lat="45.9937" lon="6.47526">
        <ele>1669.47</ele>
        <time>2019-01-20T12:13:38Z</time>
      </trkpt>
      <trkpt lat="45.99344" lon="6.47504">
        <ele>1664.66</ele>
        <time>2019-01-20T12:13:44Z</time>
      </trkpt>
      <trkpt lat="45.99341" lon="6.47499">
        <ele>1664.66</ele>
        <time>2019-01-20T12:13:45Z</time>
      </trkpt>
      <trkpt lat="45.99339" lon="6.47494">
        <ele>1663.7</ele>
        <time>2019-01-20T12:13:46Z</time>
      </trkpt>
      <trkpt lat="45.99326" lon="6.47477">
        <ele>1665.14</ele>
        <time>2019-01-20T12:13:58Z</time>
      </trkpt>
      <trkpt lat="45.99327" lon="6.47475">
        <ele>1665.14</ele>
        <time>2019-01-20T12:14:09Z</time>
      </trkpt>
      <trkpt lat="45.99322" lon="6.47468">
        <ele>1663.22</ele>
        <time>2019-01-20T12:14:14Z</time>
      </trkpt>
      <trkpt lat="45.99318" lon="6.47462">
        <ele>1662.74</ele>
        <time>2019-01-20T12:14:17Z</time>
      </trkpt>
      <trkpt lat="45.99312" lon="6.47449">
        <ele>1659.85</ele>
        <time>2019-01-20T12:14:21Z</time>
      </trkpt>
      <trkpt lat="45.99305" lon="6.47446">
        <ele>1657.45</ele>
        <time>2019-01-20T12:14:24Z</time>
      </trkpt>
      <trkpt lat="45.99301" lon="6.47453">
        <ele>1654.57</ele>
        <time>2019-01-20T12:14:26Z</time>
      </trkpt>
      <trkpt lat="45.9929" lon="6.47462">
        <ele>1650.24</ele>
        <time>2019-01-20T12:14:29Z</time>
      </trkpt>
      <trkpt lat="45.99285" lon="6.47458">
        <ele>1649.28</ele>
        <time>2019-01-20T12:14:31Z</time>
      </trkpt>
      <trkpt lat="45.99278" lon="6.47465">
        <ele>1645.43</ele>
        <time>2019-01-20T12:14:35Z</time>
      </trkpt>
      <trkpt lat="45.99276" lon="6.47469">
        <ele>1644.95</ele>
        <time>2019-01-20T12:14:36Z</time>
      </trkpt>
      <trkpt lat="45.99271" lon="6.47468">
        <ele>1640.63</ele>
        <time>2019-01-20T12:14:38Z</time>
      </trkpt>
      <trkpt lat="45.9927" lon="6.47461">
        <ele>1640.63</ele>
        <time>2019-01-20T12:14:47Z</time>
      </trkpt>
      <trkpt lat="45.9927" lon="6.4746">
        <ele>1640.63</ele>
        <time>2019-01-20T12:15:02Z</time>
      </trkpt>
      <trkpt lat="45.99267" lon="6.47467">
        <ele>1637.26</ele>
        <time>2019-01-20T12:15:07Z</time>
      </trkpt>
      <trkpt lat="45.99268" lon="6.47471">
        <ele>1636.3</ele>
        <time>2019-01-20T12:15:09Z</time>
      </trkpt>
      <trkpt lat="45.99268" lon="6.47473">
        <ele>1636.3</ele>
        <time>2019-01-20T12:15:10Z</time>
      </trkpt>
      <trkpt lat="45.99263" lon="6.47471">
        <ele>1633.42</ele>
        <time>2019-01-20T12:15:14Z</time>
      </trkpt>
      <trkpt lat="45.99259" lon="6.47462">
        <ele>1631.01</ele>
        <time>2019-01-20T12:15:18Z</time>
      </trkpt>
      <trkpt lat="45.99258" lon="6.47464">
        <ele>1630.05</ele>
        <time>2019-01-20T12:15:21Z</time>
      </trkpt>
      <trkpt lat="45.99257" lon="6.47471">
        <ele>1626.69</ele>
        <time>2019-01-20T12:15:24Z</time>
      </trkpt>
      <trkpt lat="45.99259" lon="6.47474">
        <ele>1626.21</ele>
        <time>2019-01-20T12:15:32Z</time>
      </trkpt>
      <trkpt lat="45.99254" lon="6.47473">
        <ele>1622.36</ele>
        <time>2019-01-20T12:15:35Z</time>
      </trkpt>
      <trkpt lat="45.99252" lon="6.47471">
        <ele>1622.36</ele>
        <time>2019-01-20T12:15:36Z</time>
      </trkpt>
      <trkpt lat="45.99249" lon="6.4747">
        <ele>1620.92</ele>
        <time>2019-01-20T12:15:38Z</time>
      </trkpt>
      <trkpt lat="45.99248" lon="6.47474">
        <ele>1617.56</ele>
        <time>2019-01-20T12:15:39Z</time>
      </trkpt>
      <trkpt lat="45.99248" lon="6.47482">
        <ele>1617.56</ele>
        <time>2019-01-20T12:15:40Z</time>
      </trkpt>
      <trkpt lat="45.99248" lon="6.47491">
        <ele>1614.67</ele>
        <time>2019-01-20T12:15:41Z</time>
      </trkpt>
      <trkpt lat="45.99249" lon="6.47495">
        <ele>1614.67</ele>
        <time>2019-01-20T12:15:42Z</time>
      </trkpt>
      <trkpt lat="45.9925" lon="6.47499">
        <ele>1613.71</ele>
        <time>2019-01-20T12:15:43Z</time>
      </trkpt>
      <trkpt lat="45.99249" lon="6.47502">
        <ele>1613.71</ele>
        <time>2019-01-20T12:15:44Z</time>
      </trkpt>
      <trkpt lat="45.99244" lon="6.47502">
        <ele>1611.79</ele>
        <time>2019-01-20T12:15:46Z</time>
      </trkpt>
      <trkpt lat="45.99241" lon="6.47498">
        <ele>1609.86</ele>
        <time>2019-01-20T12:15:47Z</time>
      </trkpt>
      <trkpt lat="45.9924" lon="6.47493">
        <ele>1608.42</ele>
        <time>2019-01-20T12:15:48Z</time>
      </trkpt>
      <trkpt lat="45.99238" lon="6.47489">
        <ele>1606.5</ele>
        <time>2019-01-20T12:15:49Z</time>
      </trkpt>
      <trkpt lat="45.99237" lon="6.47485">
        <ele>1606.5</ele>
        <time>2019-01-20T12:15:50Z</time>
      </trkpt>
      <trkpt lat="45.99236" lon="6.47482">
        <ele>1606.98</ele>
        <time>2019-01-20T12:15:51Z</time>
      </trkpt>
      <trkpt lat="45.99226" lon="6.47461">
        <ele>1603.62</ele>
        <time>2019-01-20T12:15:58Z</time>
      </trkpt>
      <trkpt lat="45.99224" lon="6.47458">
        <ele>1603.14</ele>
        <time>2019-01-20T12:15:59Z</time>
      </trkpt>
      <trkpt lat="45.99222" lon="6.47456">
        <ele>1605.06</ele>
        <time>2019-01-20T12:16:00Z</time>
      </trkpt>
      <trkpt lat="45.99221" lon="6.47456">
        <ele>1605.06</ele>
        <time>2019-01-20T12:16:01Z</time>
      </trkpt>
      <trkpt lat="45.99221" lon="6.47458">
        <ele>1605.06</ele>
        <time>2019-01-20T12:16:02Z</time>
      </trkpt>
      <trkpt lat="45.99221" lon="6.47463">
        <ele>1604.1</ele>
        <time>2019-01-20T12:16:03Z</time>
      </trkpt>
      <trkpt lat="45.99221" lon="6.4747">
        <ele>1602.66</ele>
        <time>2019-01-20T12:16:04Z</time>
      </trkpt>
      <trkpt lat="45.99223" lon="6.47487">
        <ele>1599.77</ele>
        <time>2019-01-20T12:16:06Z</time>
      </trkpt>
      <trkpt lat="45.99224" lon="6.47493">
        <ele>1599.29</ele>
        <time>2019-01-20T12:16:07Z</time>
      </trkpt>
      <trkpt lat="45.99226" lon="6.47502">
        <ele>1598.33</ele>
        <time>2019-01-20T12:16:09Z</time>
      </trkpt>
      <trkpt lat="45.99228" lon="6.47514">
        <ele>1598.33</ele>
        <time>2019-01-20T12:16:19Z</time>
      </trkpt>
      <trkpt lat="45.99226" lon="6.47513">
        <ele>1597.85</ele>
        <time>2019-01-20T12:16:45Z</time>
      </trkpt>
      <trkpt lat="45.99224" lon="6.47516">
        <ele>1597.85</ele>
        <time>2019-01-20T12:17:17Z</time>
      </trkpt>
      <trkpt lat="45.99224" lon="6.47514">
        <ele>1599.29</ele>
        <time>2019-01-20T12:17:39Z</time>
      </trkpt>
      <trkpt lat="45.99226" lon="6.47515">
        <ele>1598.33</ele>
        <time>2019-01-20T12:18:05Z</time>
      </trkpt>
      <trkpt lat="45.99226" lon="6.47514">
        <ele>1598.33</ele>
        <time>2019-01-20T12:18:32Z</time>
      </trkpt>
      <trkpt lat="45.99226" lon="6.47511">
        <ele>1598.33</ele>
        <time>2019-01-20T12:19:02Z</time>
      </trkpt>
      <trkpt lat="45.99225" lon="6.47513">
        <ele>1598.33</ele>
        <time>2019-01-20T12:19:06Z</time>
      </trkpt>
      <trkpt lat="45.9922" lon="6.47512">
        <ele>1595.45</ele>
        <time>2019-01-20T12:19:08Z</time>
      </trkpt>
      <trkpt lat="45.99216" lon="6.47509">
        <ele>1595.45</ele>
        <time>2019-01-20T12:19:09Z</time>
      </trkpt>
      <trkpt lat="45.99204" lon="6.47508">
        <ele>1593.04</ele>
        <time>2019-01-20T12:19:11Z</time>
      </trkpt>
      <trkpt lat="45.99197" lon="6.47506">
        <ele>1590.64</ele>
        <time>2019-01-20T12:19:12Z</time>
      </trkpt>
      <trkpt lat="45.99193" lon="6.47504">
        <ele>1592.08</ele>
        <time>2019-01-20T12:19:13Z</time>
      </trkpt>
      <trkpt lat="45.9919" lon="6.475">
        <ele>1593.04</ele>
        <time>2019-01-20T12:19:14Z</time>
      </trkpt>
      <trkpt lat="45.99187" lon="6.47498">
        <ele>1591.6</ele>
        <time>2019-01-20T12:19:15Z</time>
      </trkpt>
      <trkpt lat="45.99182" lon="6.47496">
        <ele>1590.64</ele>
        <time>2019-01-20T12:19:16Z</time>
      </trkpt>
      <trkpt lat="45.99178" lon="6.47495">
        <ele>1590.64</ele>
        <time>2019-01-20T12:19:17Z</time>
      </trkpt>
      <trkpt lat="45.99174" lon="6.47494">
        <ele>1589.2</ele>
        <time>2019-01-20T12:19:18Z</time>
      </trkpt>
      <trkpt lat="45.9917" lon="6.47491">
        <ele>1587.27</ele>
        <time>2019-01-20T12:19:19Z</time>
      </trkpt>
      <trkpt lat="45.99166" lon="6.47489">
        <ele>1587.27</ele>
        <time>2019-01-20T12:19:20Z</time>
      </trkpt>
      <trkpt lat="45.99161" lon="6.47485">
        <ele>1584.39</ele>
        <time>2019-01-20T12:19:21Z</time>
      </trkpt>
      <trkpt lat="45.99157" lon="6.47481">
        <ele>1584.39</ele>
        <time>2019-01-20T12:19:22Z</time>
      </trkpt>
      <trkpt lat="45.99153" lon="6.47477">
        <ele>1583.91</ele>
        <time>2019-01-20T12:19:23Z</time>
      </trkpt>
      <trkpt lat="45.9915" lon="6.47472">
        <ele>1581.99</ele>
        <time>2019-01-20T12:19:24Z</time>
      </trkpt>
      <trkpt lat="45.99137" lon="6.47457">
        <ele>1576.7</ele>
        <time>2019-01-20T12:19:27Z</time>
      </trkpt>
      <trkpt lat="45.99117" lon="6.47442">
        <ele>1574.3</ele>
        <time>2019-01-20T12:19:31Z</time>
      </trkpt>
      <trkpt lat="45.99107" lon="6.4743">
        <ele>1572.85</ele>
        <time>2019-01-20T12:19:33Z</time>
      </trkpt>
      <trkpt lat="45.99094" lon="6.47415">
        <ele>1570.93</ele>
        <time>2019-01-20T12:19:36Z</time>
      </trkpt>
      <trkpt lat="45.9908" lon="6.47395">
        <ele>1566.61</ele>
        <time>2019-01-20T12:19:40Z</time>
      </trkpt>
      <trkpt lat="45.99063" lon="6.47375">
        <ele>1564.68</ele>
        <time>2019-01-20T12:19:44Z</time>
      </trkpt>
      <trkpt lat="45.99034" lon="6.47343">
        <ele>1562.28</ele>
        <time>2019-01-20T12:19:52Z</time>
      </trkpt>
      <trkpt lat="45.99027" lon="6.47337">
        <ele>1560.84</ele>
        <time>2019-01-20T12:19:54Z</time>
      </trkpt>
      <trkpt lat="45.99016" lon="6.47328">
        <ele>1557.47</ele>
        <time>2019-01-20T12:20:00Z</time>
      </trkpt>
      <trkpt lat="45.99017" lon="6.47328">
        <ele>1557.95</ele>
        <time>2019-01-20T12:20:11Z</time>
      </trkpt>
      <trkpt lat="45.99018" lon="6.47332">
        <ele>1557.47</ele>
        <time>2019-01-20T12:20:45Z</time>
      </trkpt>
      <trkpt lat="45.99018" lon="6.47331">
        <ele>1557.47</ele>
        <time>2019-01-20T12:20:52Z</time>
      </trkpt>
      <trkpt lat="45.99011" lon="6.47335">
        <ele>1556.51</ele>
        <time>2019-01-20T12:20:59Z</time>
      </trkpt>
      <trkpt lat="45.98995" lon="6.47343">
        <ele>1554.11</ele>
        <time>2019-01-20T12:21:04Z</time>
      </trkpt>
      <trkpt lat="45.98987" lon="6.47344">
        <ele>1552.67</ele>
        <time>2019-01-20T12:21:06Z</time>
      </trkpt>
      <trkpt lat="45.98963" lon="6.47353">
        <ele>1551.71</ele>
        <time>2019-01-20T12:21:15Z</time>
      </trkpt>
      <trkpt lat="45.9896" lon="6.47354">
        <ele>1551.22</ele>
        <time>2019-01-20T12:21:23Z</time>
      </trkpt>
      <trkpt lat="45.98948" lon="6.47356">
        <ele>1549.3</ele>
        <time>2019-01-20T12:21:27Z</time>
      </trkpt>
      <trkpt lat="45.98944" lon="6.47353">
        <ele>1549.3</ele>
        <time>2019-01-20T12:21:35Z</time>
      </trkpt>
      <trkpt lat="45.98937" lon="6.47347">
        <ele>1547.86</ele>
        <time>2019-01-20T12:21:40Z</time>
      </trkpt>
      <trkpt lat="45.98932" lon="6.4732">
        <ele>1543.53</ele>
        <time>2019-01-20T12:21:45Z</time>
      </trkpt>
      <trkpt lat="45.98924" lon="6.47305">
        <ele>1540.17</ele>
        <time>2019-01-20T12:21:48Z</time>
      </trkpt>
      <trkpt lat="45.98924" lon="6.4729">
        <ele>1537.77</ele>
        <time>2019-01-20T12:21:50Z</time>
      </trkpt>
      <trkpt lat="45.98913" lon="6.4727">
        <ele>1534.88</ele>
        <time>2019-01-20T12:21:54Z</time>
      </trkpt>
      <trkpt lat="45.98892" lon="6.47268">
        <ele>1531.04</ele>
        <time>2019-01-20T12:21:59Z</time>
      </trkpt>
      <trkpt lat="45.98889" lon="6.47264">
        <ele>1531.04</ele>
        <time>2019-01-20T12:22:00Z</time>
      </trkpt>
      <trkpt lat="45.98881" lon="6.47246">
        <ele>1528.15</ele>
        <time>2019-01-20T12:22:03Z</time>
      </trkpt>
      <trkpt lat="45.98871" lon="6.47224">
        <ele>1522.87</ele>
        <time>2019-01-20T12:22:07Z</time>
      </trkpt>
      <trkpt lat="45.98872" lon="6.47217">
        <ele>1522.87</ele>
        <time>2019-01-20T12:22:08Z</time>
      </trkpt>
      <trkpt lat="45.98873" lon="6.4721">
        <ele>1522.87</ele>
        <time>2019-01-20T12:22:09Z</time>
      </trkpt>
      <trkpt lat="45.9887" lon="6.47198">
        <ele>1521.9</ele>
        <time>2019-01-20T12:22:16Z</time>
      </trkpt>
      <trkpt lat="45.98863" lon="6.47196">
        <ele>1521.9</ele>
        <time>2019-01-20T12:22:26Z</time>
      </trkpt>
      <trkpt lat="45.98861" lon="6.47192">
        <ele>1520.46</ele>
        <time>2019-01-20T12:22:28Z</time>
      </trkpt>
      <trkpt lat="45.98859" lon="6.47186">
        <ele>1519.5</ele>
        <time>2019-01-20T12:22:30Z</time>
      </trkpt>
      <trkpt lat="45.98855" lon="6.47155">
        <ele>1514.69</ele>
        <time>2019-01-20T12:22:36Z</time>
      </trkpt>
      <trkpt lat="45.98854" lon="6.4715">
        <ele>1514.69</ele>
        <time>2019-01-20T12:22:37Z</time>
      </trkpt>
      <trkpt lat="45.98853" lon="6.47148">
        <ele>1514.21</ele>
        <time>2019-01-20T12:22:38Z</time>
      </trkpt>
      <trkpt lat="45.9885" lon="6.4714">
        <ele>1512.29</ele>
        <time>2019-01-20T12:22:40Z</time>
      </trkpt>
      <trkpt lat="45.98841" lon="6.47125">
        <ele>1509.41</ele>
        <time>2019-01-20T12:22:44Z</time>
      </trkpt>
      <trkpt lat="45.98838" lon="6.47123">
        <ele>1508.45</ele>
        <time>2019-01-20T12:22:45Z</time>
      </trkpt>
      <trkpt lat="45.9884" lon="6.47118">
        <ele>1507</ele>
        <time>2019-01-20T12:22:47Z</time>
      </trkpt>
      <trkpt lat="45.98845" lon="6.47113">
        <ele>1503.64</ele>
        <time>2019-01-20T12:22:49Z</time>
      </trkpt>
      <trkpt lat="45.98845" lon="6.47107">
        <ele>1500.76</ele>
        <time>2019-01-20T12:22:50Z</time>
      </trkpt>
      <trkpt lat="45.98844" lon="6.47103">
        <ele>1502.2</ele>
        <time>2019-01-20T12:22:51Z</time>
      </trkpt>
      <trkpt lat="45.98846" lon="6.471">
        <ele>1498.83</ele>
        <time>2019-01-20T12:22:52Z</time>
      </trkpt>
      <trkpt lat="45.98848" lon="6.471">
        <ele>1497.87</ele>
        <time>2019-01-20T12:22:53Z</time>
      </trkpt>
      <trkpt lat="45.9885" lon="6.471">
        <ele>1496.43</ele>
        <time>2019-01-20T12:22:54Z</time>
      </trkpt>
      <trkpt lat="45.9885" lon="6.47098">
        <ele>1495.95</ele>
        <time>2019-01-20T12:22:55Z</time>
      </trkpt>
      <trkpt lat="45.98843" lon="6.47087">
        <ele>1494.99</ele>
        <time>2019-01-20T12:23:05Z</time>
      </trkpt>
      <trkpt lat="45.98815" lon="6.47081">
        <ele>1493.55</ele>
        <time>2019-01-20T12:23:17Z</time>
      </trkpt>
      <trkpt lat="45.98805" lon="6.47078">
        <ele>1492.1</ele>
        <time>2019-01-20T12:23:20Z</time>
      </trkpt>
      <trkpt lat="45.98775" lon="6.47053">
        <ele>1488.74</ele>
        <time>2019-01-20T12:23:30Z</time>
      </trkpt>
      <trkpt lat="45.98771" lon="6.47049">
        <ele>1488.74</ele>
        <time>2019-01-20T12:23:31Z</time>
      </trkpt>
      <trkpt lat="45.98768" lon="6.47044">
        <ele>1488.26</ele>
        <time>2019-01-20T12:23:32Z</time>
      </trkpt>
      <trkpt lat="45.98758" lon="6.47029">
        <ele>1486.82</ele>
        <time>2019-01-20T12:23:35Z</time>
      </trkpt>
      <trkpt lat="45.98749" lon="6.47013">
        <ele>1485.37</ele>
        <time>2019-01-20T12:23:38Z</time>
      </trkpt>
      <trkpt lat="45.98739" lon="6.46996">
        <ele>1483.93</ele>
        <time>2019-01-20T12:23:41Z</time>
      </trkpt>
      <trkpt lat="45.98724" lon="6.46967">
        <ele>1482.01</ele>
        <time>2019-01-20T12:23:46Z</time>
      </trkpt>
      <trkpt lat="45.98712" lon="6.46945">
        <ele>1480.09</ele>
        <time>2019-01-20T12:23:50Z</time>
      </trkpt>
      <trkpt lat="45.98686" lon="6.46892">
        <ele>1476.72</ele>
        <time>2019-01-20T12:24:02Z</time>
      </trkpt>
      <trkpt lat="45.98676" lon="6.4687">
        <ele>1475.28</ele>
        <time>2019-01-20T12:24:07Z</time>
      </trkpt>
      <trkpt lat="45.98657" lon="6.46823">
        <ele>1471.92</ele>
        <time>2019-01-20T12:24:16Z</time>
      </trkpt>
      <trkpt lat="45.9864" lon="6.46772">
        <ele>1468.07</ele>
        <time>2019-01-20T12:24:25Z</time>
      </trkpt>
      <trkpt lat="45.98638" lon="6.46766">
        <ele>1468.07</ele>
        <time>2019-01-20T12:24:26Z</time>
      </trkpt>
      <trkpt lat="45.98611" lon="6.46711">
        <ele>1463.74</ele>
        <time>2019-01-20T12:24:36Z</time>
      </trkpt>
      <trkpt lat="45.98608" lon="6.46706">
        <ele>1463.74</ele>
        <time>2019-01-20T12:24:37Z</time>
      </trkpt>
      <trkpt lat="45.98598" lon="6.46684">
        <ele>1461.82</ele>
        <time>2019-01-20T12:24:41Z</time>
      </trkpt>
      <trkpt lat="45.98563" lon="6.46642">
        <ele>1457.98</ele>
        <time>2019-01-20T12:24:53Z</time>
      </trkpt>
      <trkpt lat="45.9856" lon="6.46638">
        <ele>1457.98</ele>
        <time>2019-01-20T12:24:54Z</time>
      </trkpt>
      <trkpt lat="45.98535" lon="6.46617">
        <ele>1455.09</ele>
        <time>2019-01-20T12:25:00Z</time>
      </trkpt>
      <trkpt lat="45.98527" lon="6.46612">
        <ele>1453.65</ele>
        <time>2019-01-20T12:25:02Z</time>
      </trkpt>
      <trkpt lat="45.98508" lon="6.46603">
        <ele>1453.17</ele>
        <time>2019-01-20T12:25:06Z</time>
      </trkpt>
      <trkpt lat="45.98503" lon="6.46601">
        <ele>1453.17</ele>
        <time>2019-01-20T12:25:07Z</time>
      </trkpt>
      <trkpt lat="45.98487" lon="6.46598">
        <ele>1451.25</ele>
        <time>2019-01-20T12:25:10Z</time>
      </trkpt>
      <trkpt lat="45.98472" lon="6.46593">
        <ele>1449.81</ele>
        <time>2019-01-20T12:25:13Z</time>
      </trkpt>
      <trkpt lat="45.98456" lon="6.46588">
        <ele>1447.4</ele>
        <time>2019-01-20T12:25:16Z</time>
      </trkpt>
      <trkpt lat="45.98429" lon="6.46578">
        <ele>1445.48</ele>
        <time>2019-01-20T12:25:21Z</time>
      </trkpt>
      <trkpt lat="45.98402" lon="6.46566">
        <ele>1443.08</ele>
        <time>2019-01-20T12:25:26Z</time>
      </trkpt>
      <trkpt lat="45.98386" lon="6.46561">
        <ele>1441.63</ele>
        <time>2019-01-20T12:25:29Z</time>
      </trkpt>
      <trkpt lat="45.98366" lon="6.46552">
        <ele>1439.71</ele>
        <time>2019-01-20T12:25:33Z</time>
      </trkpt>
      <trkpt lat="45.98349" lon="6.46546">
        <ele>1437.79</ele>
        <time>2019-01-20T12:25:36Z</time>
      </trkpt>
      <trkpt lat="45.98331" lon="6.46541">
        <ele>1436.35</ele>
        <time>2019-01-20T12:25:39Z</time>
      </trkpt>
      <trkpt lat="45.98303" lon="6.46533">
        <ele>1433.94</ele>
        <time>2019-01-20T12:25:44Z</time>
      </trkpt>
      <trkpt lat="45.98252" lon="6.46538">
        <ele>1430.1</ele>
        <time>2019-01-20T12:25:54Z</time>
      </trkpt>
      <trkpt lat="45.98242" lon="6.46542">
        <ele>1429.14</ele>
        <time>2019-01-20T12:25:56Z</time>
      </trkpt>
      <trkpt lat="45.98209" lon="6.46552">
        <ele>1426.73</ele>
        <time>2019-01-20T12:26:02Z</time>
      </trkpt>
      <trkpt lat="45.98204" lon="6.46554">
        <ele>1426.73</ele>
        <time>2019-01-20T12:26:03Z</time>
      </trkpt>
      <trkpt lat="45.98199" lon="6.46555">
        <ele>1425.29</ele>
        <time>2019-01-20T12:26:04Z</time>
      </trkpt>
      <trkpt lat="45.98194" lon="6.46556">
        <ele>1424.81</ele>
        <time>2019-01-20T12:26:05Z</time>
      </trkpt>
      <trkpt lat="45.98188" lon="6.46557">
        <ele>1423.37</ele>
        <time>2019-01-20T12:26:06Z</time>
      </trkpt>
      <trkpt lat="45.98183" lon="6.46558">
        <ele>1423.37</ele>
        <time>2019-01-20T12:26:07Z</time>
      </trkpt>
      <trkpt lat="45.98149" lon="6.46568">
        <ele>1419.52</ele>
        <time>2019-01-20T12:26:13Z</time>
      </trkpt>
      <trkpt lat="45.98143" lon="6.4657">
        <ele>1419.52</ele>
        <time>2019-01-20T12:26:14Z</time>
      </trkpt>
      <trkpt lat="45.98113" lon="6.46578">
        <ele>1417.12</ele>
        <time>2019-01-20T12:26:19Z</time>
      </trkpt>
      <trkpt lat="45.98077" lon="6.46583">
        <ele>1414.24</ele>
        <time>2019-01-20T12:26:25Z</time>
      </trkpt>
      <trkpt lat="45.98066" lon="6.46585">
        <ele>1413.28</ele>
        <time>2019-01-20T12:26:27Z</time>
      </trkpt>
      <trkpt lat="45.98028" lon="6.46597">
        <ele>1409.91</ele>
        <time>2019-01-20T12:26:34Z</time>
      </trkpt>
      <trkpt lat="45.98018" lon="6.46603">
        <ele>1408.95</ele>
        <time>2019-01-20T12:26:36Z</time>
      </trkpt>
      <trkpt lat="45.97988" lon="6.46627">
        <ele>1406.07</ele>
        <time>2019-01-20T12:26:42Z</time>
      </trkpt>
      <trkpt lat="45.97962" lon="6.46651">
        <ele>1402.7</ele>
        <time>2019-01-20T12:26:47Z</time>
      </trkpt>
      <trkpt lat="45.9795" lon="6.4666">
        <ele>1401.74</ele>
        <time>2019-01-20T12:26:49Z</time>
      </trkpt>
      <trkpt lat="45.97914" lon="6.46694">
        <ele>1398.86</ele>
        <time>2019-01-20T12:26:56Z</time>
      </trkpt>
      <trkpt lat="45.9791" lon="6.467">
        <ele>1398.86</ele>
        <time>2019-01-20T12:26:57Z</time>
      </trkpt>
      <trkpt lat="45.97898" lon="6.46715">
        <ele>1396.45</ele>
        <time>2019-01-20T12:27:00Z</time>
      </trkpt>
      <trkpt lat="45.97894" lon="6.4672">
        <ele>1395.49</ele>
        <time>2019-01-20T12:27:01Z</time>
      </trkpt>
      <trkpt lat="45.9789" lon="6.46725">
        <ele>1395.49</ele>
        <time>2019-01-20T12:27:02Z</time>
      </trkpt>
      <trkpt lat="45.97887" lon="6.46731">
        <ele>1395.49</ele>
        <time>2019-01-20T12:27:03Z</time>
      </trkpt>
      <trkpt lat="45.97884" lon="6.46737">
        <ele>1395.01</ele>
        <time>2019-01-20T12:27:04Z</time>
      </trkpt>
      <trkpt lat="45.97881" lon="6.46743">
        <ele>1395.01</ele>
        <time>2019-01-20T12:27:05Z</time>
      </trkpt>
      <trkpt lat="45.97879" lon="6.46749">
        <ele>1394.53</ele>
        <time>2019-01-20T12:27:06Z</time>
      </trkpt>
      <trkpt lat="45.9787" lon="6.46774">
        <ele>1392.61</ele>
        <time>2019-01-20T12:27:10Z</time>
      </trkpt>
      <trkpt lat="45.97852" lon="6.46822">
        <ele>1390.68</ele>
        <time>2019-01-20T12:27:18Z</time>
      </trkpt>
      <trkpt lat="45.97849" lon="6.46828">
        <ele>1390.2</ele>
        <time>2019-01-20T12:27:19Z</time>
      </trkpt>
      <trkpt lat="45.97847" lon="6.46834">
        <ele>1390.2</ele>
        <time>2019-01-20T12:27:20Z</time>
      </trkpt>
      <trkpt lat="45.97825" lon="6.46865">
        <ele>1388.28</ele>
        <time>2019-01-20T12:27:27Z</time>
      </trkpt>
      <trkpt lat="45.97821" lon="6.46868">
        <ele>1388.28</ele>
        <time>2019-01-20T12:27:28Z</time>
      </trkpt>
      <trkpt lat="45.97817" lon="6.46871">
        <ele>1388.28</ele>
        <time>2019-01-20T12:27:29Z</time>
      </trkpt>
      <trkpt lat="45.97814" lon="6.46874">
        <ele>1387.8</ele>
        <time>2019-01-20T12:27:30Z</time>
      </trkpt>
      <trkpt lat="45.97812" lon="6.46878">
        <ele>1387.8</ele>
        <time>2019-01-20T12:27:31Z</time>
      </trkpt>
      <trkpt lat="45.9781" lon="6.46882">
        <ele>1387.8</ele>
        <time>2019-01-20T12:27:32Z</time>
      </trkpt>
      <trkpt lat="45.97808" lon="6.46884">
        <ele>1387.8</ele>
        <time>2019-01-20T12:27:33Z</time>
      </trkpt>
      <trkpt lat="45.97807" lon="6.46886">
        <ele>1387.8</ele>
        <time>2019-01-20T12:27:34Z</time>
      </trkpt>
      <trkpt lat="45.97805" lon="6.46887">
        <ele>1387.8</ele>
        <time>2019-01-20T12:27:35Z</time>
      </trkpt>
      <trkpt lat="45.97803" lon="6.46887">
        <ele>1386.84</ele>
        <time>2019-01-20T12:27:36Z</time>
      </trkpt>
      <trkpt lat="45.978" lon="6.46887">
        <ele>1386.84</ele>
        <time>2019-01-20T12:27:37Z</time>
      </trkpt>
      <trkpt lat="45.97784" lon="6.46889">
        <ele>1385.88</ele>
        <time>2019-01-20T12:27:41Z</time>
      </trkpt>
      <trkpt lat="45.97764" lon="6.46899">
        <ele>1384.44</ele>
        <time>2019-01-20T12:27:50Z</time>
      </trkpt>
      <trkpt lat="45.97747" lon="6.4691">
        <ele>1383.47</ele>
        <time>2019-01-20T12:28:00Z</time>
      </trkpt>
      <trkpt lat="45.97739" lon="6.46917">
        <ele>1382.99</ele>
        <time>2019-01-20T12:28:08Z</time>
      </trkpt>
      <trkpt lat="45.97739" lon="6.46916">
        <ele>1382.51</ele>
        <time>2019-01-20T12:28:09Z</time>
      </trkpt>
      <trkpt lat="45.97737" lon="6.46916">
        <ele>1382.99</ele>
        <time>2019-01-20T12:28:20Z</time>
      </trkpt>
      <trkpt lat="45.97737" lon="6.46917">
        <ele>1381.55</ele>
        <time>2019-01-20T12:28:22Z</time>
      </trkpt>
      <trkpt lat="45.97737" lon="6.46917">
        <ele>1381.55</ele>
        <time>2019-01-20T12:28:45Z</time>
      </trkpt>
      <trkpt lat="45.97738" lon="6.46918">
        <ele>1381.55</ele>
        <time>2019-01-20T12:28:46Z</time>
      </trkpt>
      <trkpt lat="45.97737" lon="6.46919">
        <ele>1382.51</ele>
        <time>2019-01-20T12:29:08Z</time>
      </trkpt>
      <trkpt lat="45.9774" lon="6.46918">
        <ele>1382.99</ele>
        <time>2019-01-20T12:29:33Z</time>
      </trkpt>
      <trkpt lat="45.97742" lon="6.46917">
        <ele>1382.03</ele>
        <time>2019-01-20T12:29:57Z</time>
      </trkpt>
    </trkseg>
  </trk>
</gpx>